SIA482 WSSS-FAOR
Flight info
| Callsign | SIA482 |
|---|---|
| Flight time | N/A |
| Altitude | 36000 |
| Route | TAROS1A TAROS R469 PKU N628 DABAP/N0491F380 P627 KADAP R348 UNPAP/N0485F400 R348 RUPIG UR348 TNV UB536 EROPA UT536 VMA UM310 TONKA UT949 APNON UZ9 TETIK DCT UNPOM UNPOM1A |
| Aircraft | A359/H-SDE1E2E3GHIJ1J2J3J5M1P2RWXYZ/LB1D1 |
Departure
| Time | 2026-05-03 22:38 |
|---|---|
| Airport | Singapore Changi Airport (WSSS) |
Arrival
| Time | N/A |
|---|---|
| Airport | O.R. Tambo International Airport (FAOR) |
| Time | Latitude | Longitude | Altitude | Speed | Heading |
|---|---|---|---|---|---|
| 2026-05-03 22:14 | 1.35862 | 103.99173 | 36 ft | 0 kts | 294° |
| 2026-05-03 22:21 | 1.35862 | 103.99174 | 36 ft | 1 kts | 294° |
| 2026-05-03 22:21 | 1.35855 | 103.99190 | 36 ft | 3 kts | 294° |
| 2026-05-03 22:21 | 1.35847 | 103.99208 | 34 ft | 3 kts | 309° |
| 2026-05-03 22:22 | 1.35833 | 103.99220 | 34 ft | 3 kts | 325° |
| 2026-05-03 22:22 | 1.35817 | 103.99231 | 36 ft | 3 kts | 348° |
| 2026-05-03 22:22 | 1.35803 | 103.99232 | 36 ft | 0 kts | 11° |
| 2026-05-03 22:27 | 1.35825 | 103.99259 | 36 ft | 10 kts | 75° |
| 2026-05-03 22:27 | 1.35868 | 103.99351 | 36 ft | 18 kts | 60° |
| 2026-05-03 22:28 | 1.35858 | 103.99483 | 36 ft | 21 kts | 111° |
| 2026-05-03 22:28 | 1.35789 | 103.99527 | 36 ft | 10 kts | 186° |
| 2026-05-03 22:28 | 1.35707 | 103.99494 | 36 ft | 19 kts | 204° |
| 2026-05-03 22:28 | 1.35558 | 103.99431 | 36 ft | 24 kts | 202° |
| 2026-05-03 22:29 | 1.35403 | 103.99366 | 36 ft | 24 kts | 201° |
| 2026-05-03 22:29 | 1.35252 | 103.99301 | 36 ft | 24 kts | 203° |
| 2026-05-03 22:29 | 1.35101 | 103.99237 | 36 ft | 23 kts | 202° |
| 2026-05-03 22:29 | 1.34951 | 103.99175 | 36 ft | 24 kts | 202° |
| 2026-05-03 22:30 | 1.34799 | 103.99111 | 36 ft | 24 kts | 202° |
| 2026-05-03 22:30 | 1.34647 | 103.99047 | 36 ft | 24 kts | 202° |
| 2026-05-03 22:30 | 1.34495 | 103.98983 | 36 ft | 24 kts | 202° |
| 2026-05-03 22:30 | 1.34342 | 103.98919 | 36 ft | 24 kts | 202° |
| 2026-05-03 22:31 | 1.34191 | 103.98855 | 36 ft | 24 kts | 203° |
| 2026-05-03 22:31 | 1.34040 | 103.98791 | 36 ft | 22 kts | 203° |
| 2026-05-03 22:31 | 1.33893 | 103.98730 | 35 ft | 23 kts | 203° |
| 2026-05-03 22:31 | 1.33745 | 103.98668 | 36 ft | 23 kts | 202° |
| 2026-05-03 22:32 | 1.33597 | 103.98606 | 36 ft | 23 kts | 202° |
| 2026-05-03 22:32 | 1.33447 | 103.98543 | 36 ft | 23 kts | 203° |
| 2026-05-03 22:32 | 1.33299 | 103.98481 | 37 ft | 23 kts | 202° |
| 2026-05-03 22:32 | 1.33150 | 103.98418 | 37 ft | 23 kts | 203° |
| 2026-05-03 22:33 | 1.33004 | 103.98356 | 37 ft | 21 kts | 203° |
| 2026-05-03 22:33 | 1.32946 | 103.98373 | 37 ft | 8 kts | 130° |
| 2026-05-03 22:33 | 1.32919 | 103.98424 | 37 ft | 9 kts | 112° |
| 2026-05-03 22:33 | 1.32897 | 103.98482 | 36 ft | 7 kts | 99° |
| 2026-05-03 22:34 | 1.32917 | 103.98515 | 36 ft | 5 kts | 32° |
| 2026-05-03 22:34 | 1.32927 | 103.98519 | 36 ft | 0 kts | 23° |
| 2026-05-03 22:37 | 1.32931 | 103.98520 | 37 ft | 6 kts | 23° |
| 2026-05-03 22:37 | 1.33174 | 103.98624 | 37 ft | 70 kts | 23° |
| 2026-05-03 22:37 | 1.33803 | 103.98888 | 37 ft | 125 kts | 23° |
| 2026-05-03 22:38 | 1.34755 | 103.99290 | 37 ft | 171 kts | 22° |
| 2026-05-03 22:38 | 1.35906 | 103.99773 | 410 ft | 184 kts | 23° |
| 2026-05-03 22:38 | 1.37124 | 104.00294 | 818 ft | 201 kts | 24° |
| 2026-05-03 22:38 | 1.38466 | 104.00891 | 1174 ft | 222 kts | 25° |
| 2026-05-03 22:39 | 1.39950 | 104.01566 | 1440 ft | 250 kts | 23° |
| 2026-05-03 22:39 | 1.41679 | 104.02282 | 1431 ft | 290 kts | 22° |
| 2026-05-03 22:39 | 1.43659 | 104.03089 | 1341 ft | 331 kts | 22° |
| 2026-05-03 22:39 | 1.45834 | 104.04031 | 1852 ft | 346 kts | 28° |
| 2026-05-03 22:40 | 1.47623 | 104.05573 | 2975 ft | 338 kts | 54° |
| 2026-05-03 22:40 | 1.48535 | 104.07684 | 4153 ft | 329 kts | 80° |
| 2026-05-03 22:40 | 1.48434 | 104.09917 | 5116 ft | 320 kts | 107° |
| 2026-05-03 22:40 | 1.47405 | 104.11837 | 6035 ft | 309 kts | 127° |
| 2026-05-03 22:41 | 1.46168 | 104.13552 | 6892 ft | 299 kts | 124° |
| 2026-05-03 22:41 | 1.45062 | 104.15279 | 7767 ft | 292 kts | 121° |
| 2026-05-03 22:41 | 1.44064 | 104.17033 | 8467 ft | 291 kts | 118° |
| 2026-05-03 22:41 | 1.42897 | 104.18686 | 9100 ft | 292 kts | 133° |
| 2026-05-03 22:42 | 1.41278 | 104.19910 | 9717 ft | 294 kts | 154° |
| 2026-05-03 22:42 | 1.39297 | 104.20407 | 10161 ft | 301 kts | 179° |
| 2026-05-03 22:42 | 1.37219 | 104.19954 | 10380 ft | 316 kts | 207° |
| 2026-05-03 22:42 | 1.35529 | 104.18505 | 10579 ft | 331 kts | 235° |
| 2026-05-03 22:43 | 1.34542 | 104.16389 | 10816 ft | 344 kts | 252° |
| 2026-05-03 22:43 | 1.33814 | 104.14063 | 11054 ft | 357 kts | 253° |
| 2026-05-03 22:43 | 1.33062 | 104.11656 | 11248 ft | 369 kts | 252° |
| 2026-05-03 22:43 | 1.32259 | 104.09183 | 11481 ft | 380 kts | 251° |
| 2026-05-03 22:44 | 1.31418 | 104.06653 | 11792 ft | 386 kts | 251° |
| 2026-05-03 22:44 | 1.30555 | 104.04090 | 12158 ft | 391 kts | 251° |
| 2026-05-03 22:44 | 1.29678 | 104.01506 | 12556 ft | 395 kts | 251° |
| 2026-05-03 22:44 | 1.28791 | 103.98898 | 12936 ft | 398 kts | 251° |
| 2026-05-03 22:45 | 1.27894 | 103.96269 | 13337 ft | 401 kts | 251° |
| 2026-05-03 22:45 | 1.26991 | 103.93623 | 13721 ft | 405 kts | 251° |
| 2026-05-03 22:45 | 1.26078 | 103.90950 | 14063 ft | 407 kts | 251° |
| 2026-05-03 22:45 | 1.25160 | 103.88263 | 14422 ft | 410 kts | 251° |
| 2026-05-03 22:46 | 1.24237 | 103.85560 | 14758 ft | 412 kts | 251° |
| 2026-05-03 22:46 | 1.23307 | 103.82841 | 15088 ft | 415 kts | 250° |
| 2026-05-03 22:46 | 1.22374 | 103.80111 | 15438 ft | 417 kts | 250° |
| 2026-05-03 22:46 | 1.21433 | 103.77357 | 15765 ft | 419 kts | 250° |
| 2026-05-03 22:47 | 1.20500 | 103.74627 | 16107 ft | 421 kts | 250° |
| 2026-05-03 22:47 | 1.19858 | 103.72751 | 16332 ft | 423 kts | 250° |
| 2026-05-03 22:47 | 1.19163 | 103.70716 | 16567 ft | 425 kts | 250° |
| 2026-05-03 22:48 | 1.18205 | 103.67914 | 16898 ft | 427 kts | 250° |
| 2026-05-03 22:48 | 1.17243 | 103.65100 | 17229 ft | 429 kts | 250° |
| 2026-05-03 22:48 | 1.16274 | 103.62266 | 17546 ft | 431 kts | 250° |
| 2026-05-03 22:48 | 1.15316 | 103.59463 | 17869 ft | 434 kts | 250° |
| 2026-05-03 22:49 | 1.14325 | 103.56565 | 18187 ft | 436 kts | 250° |
| 2026-05-03 22:49 | 1.13356 | 103.53730 | 18456 ft | 438 kts | 250° |
| 2026-05-03 22:49 | 1.12371 | 103.50850 | 18748 ft | 439 kts | 250° |
| 2026-05-03 22:49 | 1.11382 | 103.47957 | 19057 ft | 440 kts | 250° |
| 2026-05-03 22:50 | 1.10393 | 103.45064 | 19387 ft | 440 kts | 250° |
| 2026-05-03 22:50 | 1.09401 | 103.42164 | 19671 ft | 442 kts | 250° |
| 2026-05-03 22:50 | 1.08406 | 103.39254 | 19934 ft | 444 kts | 250° |
| 2026-05-03 22:50 | 1.07405 | 103.36328 | 20211 ft | 445 kts | 250° |
| 2026-05-03 22:51 | 1.06402 | 103.33397 | 20496 ft | 447 kts | 250° |
| 2026-05-03 22:51 | 1.05396 | 103.30454 | 20774 ft | 449 kts | 250° |
| 2026-05-03 22:51 | 1.04385 | 103.27497 | 21064 ft | 450 kts | 250° |
| 2026-05-03 22:51 | 1.03371 | 103.24533 | 21346 ft | 452 kts | 250° |
| 2026-05-03 22:52 | 1.02353 | 103.21556 | 21633 ft | 454 kts | 250° |
| 2026-05-03 22:52 | 1.01330 | 103.18566 | 21918 ft | 455 kts | 250° |
| 2026-05-03 22:52 | 1.00305 | 103.15567 | 22204 ft | 457 kts | 250° |
| 2026-05-03 22:52 | 0.99274 | 103.12556 | 22500 ft | 459 kts | 251° |
| 2026-05-03 22:53 | 0.98238 | 103.09528 | 22757 ft | 462 kts | 251° |
| 2026-05-03 22:53 | 0.97197 | 103.06483 | 23040 ft | 464 kts | 251° |
| 2026-05-03 22:53 | 0.96151 | 103.03426 | 23315 ft | 466 kts | 251° |
| 2026-05-03 22:53 | 0.95101 | 103.00356 | 23575 ft | 468 kts | 251° |
| 2026-05-03 22:54 | 0.94047 | 102.97277 | 23827 ft | 470 kts | 251° |
| 2026-05-03 22:54 | 0.92989 | 102.94183 | 24067 ft | 471 kts | 251° |
| 2026-05-03 22:54 | 0.91927 | 102.91080 | 24312 ft | 473 kts | 251° |
| 2026-05-03 22:54 | 0.90863 | 102.87969 | 24563 ft | 474 kts | 251° |
| 2026-05-03 22:55 | 0.89794 | 102.84846 | 24818 ft | 476 kts | 251° |
| 2026-05-03 22:55 | 0.88720 | 102.81706 | 25081 ft | 478 kts | 251° |
| 2026-05-03 22:55 | 0.87643 | 102.78560 | 25362 ft | 480 kts | 251° |
| 2026-05-03 22:55 | 0.86562 | 102.75402 | 25628 ft | 482 kts | 251° |
| 2026-05-03 22:56 | 0.85476 | 102.72227 | 25892 ft | 484 kts | 251° |
| 2026-05-03 22:56 | 0.84384 | 102.69035 | 26175 ft | 486 kts | 251° |
| 2026-05-03 22:56 | 0.83289 | 102.65835 | 26474 ft | 488 kts | 251° |
| 2026-05-03 22:56 | 0.82189 | 102.62621 | 26773 ft | 490 kts | 251° |
| 2026-05-03 22:57 | 0.81098 | 102.59436 | 27062 ft | 492 kts | 251° |
| 2026-05-03 22:57 | 0.79990 | 102.56198 | 27370 ft | 494 kts | 251° |
| 2026-05-03 22:57 | 0.78900 | 102.53012 | 27664 ft | 496 kts | 251° |
| 2026-05-03 22:57 | 0.77780 | 102.49739 | 27976 ft | 499 kts | 251° |
| 2026-05-03 22:58 | 0.76655 | 102.46453 | 28259 ft | 501 kts | 251° |
| 2026-05-03 22:58 | 0.75526 | 102.43154 | 28542 ft | 503 kts | 251° |
| 2026-05-03 22:58 | 0.74393 | 102.39844 | 28814 ft | 505 kts | 251° |
| 2026-05-03 22:58 | 0.73238 | 102.36470 | 29115 ft | 507 kts | 251° |
| 2026-05-03 22:59 | 0.72110 | 102.33178 | 29379 ft | 509 kts | 251° |
| 2026-05-03 22:59 | 0.70964 | 102.29830 | 29629 ft | 511 kts | 251° |
| 2026-05-03 22:59 | 0.69811 | 102.26461 | 29873 ft | 513 kts | 251° |
| 2026-05-03 22:59 | 0.68664 | 102.23082 | 30082 ft | 515 kts | 251° |
| 2026-05-03 23:00 | 0.67536 | 102.19682 | 30275 ft | 517 kts | 251° |
| 2026-05-03 23:00 | 0.66414 | 102.16268 | 30466 ft | 518 kts | 251° |
| 2026-05-03 23:00 | 0.65290 | 102.12841 | 30696 ft | 519 kts | 251° |
| 2026-05-03 23:00 | 0.64166 | 102.09421 | 30989 ft | 518 kts | 251° |
| 2026-05-03 23:01 | 0.63040 | 102.06004 | 31263 ft | 517 kts | 251° |
| 2026-05-03 23:01 | 0.61913 | 102.02594 | 31547 ft | 516 kts | 251° |
| 2026-05-03 23:01 | 0.60788 | 101.99195 | 31856 ft | 515 kts | 251° |
| 2026-05-03 23:01 | 0.59664 | 101.95802 | 32140 ft | 514 kts | 251° |
| 2026-05-03 23:02 | 0.58542 | 101.92414 | 32413 ft | 513 kts | 251° |
| 2026-05-03 23:02 | 0.57422 | 101.89034 | 32668 ft | 513 kts | 251° |
| 2026-05-03 23:02 | 0.56300 | 101.85649 | 32930 ft | 512 kts | 251° |
| 2026-05-03 23:02 | 0.55185 | 101.82284 | 33188 ft | 511 kts | 251° |
| 2026-05-03 23:03 | 0.54066 | 101.78908 | 33434 ft | 511 kts | 251° |
| 2026-05-03 23:03 | 0.52950 | 101.75537 | 33676 ft | 510 kts | 251° |
| 2026-05-03 23:03 | 0.51835 | 101.72172 | 33906 ft | 510 kts | 251° |
| 2026-05-03 23:03 | 0.50722 | 101.68813 | 34117 ft | 509 kts | 251° |
| 2026-05-03 23:04 | 0.49612 | 101.65463 | 34366 ft | 507 kts | 251° |
| 2026-05-03 23:04 | 0.48508 | 101.62130 | 34683 ft | 503 kts | 251° |
| 2026-05-03 23:04 | 0.47412 | 101.58821 | 34876 ft | 503 kts | 251° |
| 2026-05-03 23:04 | 0.46313 | 101.55506 | 35032 ft | 503 kts | 251° |
| 2026-05-03 23:05 | 0.45214 | 101.52188 | 35203 ft | 502 kts | 251° |
| 2026-05-03 23:05 | 0.44116 | 101.48875 | 35379 ft | 502 kts | 251° |
| 2026-05-03 23:05 | 0.43068 | 101.45547 | 35539 ft | 502 kts | 255° |
| 2026-05-03 23:05 | 0.42384 | 101.42134 | 35706 ft | 501 kts | 261° |
| 2026-05-03 23:06 | 0.41883 | 101.38683 | 35828 ft | 502 kts | 262° |
| 2026-05-03 23:06 | 0.41022 | 101.31725 | 35863 ft | 508 kts | 263° |
| 2026-05-03 23:07 | 0.40217 | 101.24758 | 35888 ft | 508 kts | 263° |
| 2026-05-03 23:07 | 0.39396 | 101.17743 | 35888 ft | 508 kts | 263° |
| 2026-05-03 23:08 | 0.38561 | 101.10727 | 35888 ft | 508 kts | 263° |
| 2026-05-03 23:08 | 0.37722 | 101.03718 | 35885 ft | 509 kts | 263° |
| 2026-05-03 23:09 | 0.36882 | 100.96701 | 35890 ft | 509 kts | 263° |
| 2026-05-03 23:09 | 0.36043 | 100.89684 | 35890 ft | 508 kts | 263° |
| 2026-05-03 23:10 | 0.35204 | 100.82673 | 35892 ft | 508 kts | 263° |
| 2026-05-03 23:10 | 0.34365 | 100.75660 | 35892 ft | 508 kts | 263° |
| 2026-05-03 23:11 | 0.33526 | 100.68645 | 35900 ft | 508 kts | 263° |
| 2026-05-03 23:11 | 0.32687 | 100.61633 | 35904 ft | 508 kts | 263° |
| 2026-05-03 23:12 | 0.31847 | 100.54612 | 35912 ft | 509 kts | 263° |
| 2026-05-03 23:12 | 0.31006 | 100.47584 | 35914 ft | 510 kts | 263° |
| 2026-05-03 23:13 | 0.30165 | 100.40552 | 35926 ft | 510 kts | 263° |
| 2026-05-03 23:13 | 0.29323 | 100.33515 | 35938 ft | 510 kts | 263° |
| 2026-05-03 23:14 | 0.28623 | 100.27671 | 35949 ft | 510 kts | 263° |
| 2026-05-03 23:14 | 0.27781 | 100.20633 | 35947 ft | 510 kts | 263° |
| 2026-05-03 23:15 | 0.26938 | 100.13589 | 35949 ft | 512 kts | 263° |
| 2026-05-03 23:15 | 0.26092 | 100.06524 | 35950 ft | 512 kts | 263° |
| 2026-05-03 23:16 | 0.25247 | 99.99459 | 35949 ft | 512 kts | 263° |
| 2026-05-03 23:16 | 0.24402 | 99.92400 | 35941 ft | 512 kts | 263° |
| 2026-05-03 23:17 | 0.23557 | 99.85342 | 35942 ft | 512 kts | 263° |
| 2026-05-03 23:17 | 0.22711 | 99.78280 | 35929 ft | 511 kts | 263° |
| 2026-05-03 23:18 | 0.21866 | 99.71223 | 35930 ft | 511 kts | 263° |
| 2026-05-03 23:18 | 0.21023 | 99.64177 | 35917 ft | 511 kts | 263° |
| 2026-05-03 23:19 | 0.20179 | 99.57126 | 35916 ft | 511 kts | 263° |
| 2026-05-03 23:19 | 0.19335 | 99.50077 | 35912 ft | 511 kts | 263° |
| 2026-05-03 23:20 | 0.18492 | 99.43032 | 35910 ft | 510 kts | 263° |
| 2026-05-03 23:20 | 0.17650 | 99.36004 | 35905 ft | 509 kts | 263° |
| 2026-05-03 23:21 | 0.16809 | 99.28979 | 35905 ft | 509 kts | 263° |
| 2026-05-03 23:21 | 0.15974 | 99.22006 | 35906 ft | 509 kts | 263° |
| 2026-05-03 23:22 | 0.14710 | 99.11429 | 35907 ft | 509 kts | 263° |
| 2026-05-03 23:22 | 0.13880 | 99.04449 | 35906 ft | 509 kts | 263° |
| 2026-05-03 23:23 | 0.13040 | 98.97374 | 35906 ft | 510 kts | 263° |
| 2026-05-03 23:23 | 0.12209 | 98.90388 | 35906 ft | 510 kts | 263° |
| 2026-05-03 23:24 | 0.11372 | 98.83355 | 35907 ft | 510 kts | 263° |
| 2026-05-03 23:24 | 0.10536 | 98.76323 | 35905 ft | 510 kts | 263° |
| 2026-05-03 23:25 | 0.09699 | 98.69294 | 35906 ft | 509 kts | 263° |
| 2026-05-03 23:25 | 0.08865 | 98.62281 | 35906 ft | 508 kts | 263° |
| 2026-05-03 23:26 | 0.08032 | 98.55276 | 35907 ft | 508 kts | 263° |
| 2026-05-03 23:26 | 0.07199 | 98.48274 | 35906 ft | 508 kts | 263° |
| 2026-05-03 23:27 | 0.06365 | 98.41270 | 35907 ft | 508 kts | 263° |
| 2026-05-03 23:27 | 0.05531 | 98.34260 | 35912 ft | 508 kts | 263° |
| 2026-05-03 23:28 | 0.04695 | 98.27235 | 35906 ft | 512 kts | 263° |
| 2026-05-03 23:28 | 0.03854 | 98.20166 | 35907 ft | 513 kts | 263° |
| 2026-05-03 23:29 | 0.03012 | 98.13086 | 35906 ft | 513 kts | 263° |
| 2026-05-03 23:29 | 0.02170 | 98.06014 | 35905 ft | 513 kts | 263° |
| 2026-05-03 23:30 | 0.01329 | 97.98942 | 35912 ft | 513 kts | 263° |
| 2026-05-03 23:30 | 0.00492 | 97.91911 | 35910 ft | 513 kts | 263° |
| 2026-05-03 23:31 | -0.00350 | 97.84832 | 35908 ft | 513 kts | 263° |
| 2026-05-03 23:31 | -0.01193 | 97.77748 | 35908 ft | 514 kts | 263° |
| 2026-05-03 23:32 | -0.02036 | 97.70667 | 35904 ft | 514 kts | 263° |
| 2026-05-03 23:32 | -0.02879 | 97.63579 | 35902 ft | 513 kts | 263° |
| 2026-05-03 23:33 | -0.03722 | 97.56496 | 35906 ft | 513 kts | 263° |
| 2026-05-03 23:33 | -0.04565 | 97.49410 | 35904 ft | 514 kts | 263° |
| 2026-05-03 23:34 | -0.05408 | 97.42323 | 35906 ft | 514 kts | 263° |
| 2026-05-03 23:34 | -0.06252 | 97.35235 | 35905 ft | 514 kts | 263° |
| 2026-05-03 23:35 | -0.07095 | 97.28150 | 35904 ft | 514 kts | 263° |
| 2026-05-03 23:35 | -0.07938 | 97.21065 | 35902 ft | 514 kts | 263° |
| 2026-05-03 23:36 | -0.08781 | 97.13977 | 35904 ft | 514 kts | 263° |
| 2026-05-03 23:36 | -0.09625 | 97.06887 | 35907 ft | 514 kts | 263° |
| 2026-05-03 23:37 | -0.10468 | 96.99802 | 35903 ft | 514 kts | 263° |
| 2026-05-03 23:37 | -0.11305 | 96.92760 | 35902 ft | 514 kts | 263° |
| 2026-05-03 23:38 | -0.12149 | 96.85673 | 35902 ft | 514 kts | 263° |
| 2026-05-03 23:38 | -0.12993 | 96.78574 | 35904 ft | 515 kts | 263° |
| 2026-05-03 23:39 | -0.13840 | 96.71458 | 35906 ft | 516 kts | 263° |
| 2026-05-03 23:39 | -0.14686 | 96.64345 | 35904 ft | 516 kts | 263° |
| 2026-05-03 23:40 | -0.15532 | 96.57234 | 35906 ft | 516 kts | 263° |
| 2026-05-03 23:40 | -0.16379 | 96.50112 | 35902 ft | 516 kts | 263° |
| 2026-05-03 23:41 | -0.17225 | 96.42997 | 35907 ft | 517 kts | 263° |
| 2026-05-03 23:41 | -0.18075 | 96.35850 | 35903 ft | 518 kts | 263° |
| 2026-05-03 23:42 | -0.18926 | 96.28699 | 35903 ft | 519 kts | 263° |
| 2026-05-03 23:42 | -0.19777 | 96.21547 | 35904 ft | 519 kts | 263° |
| 2026-05-03 23:43 | -0.20628 | 96.14391 | 35906 ft | 519 kts | 263° |
| 2026-05-03 23:43 | -0.21479 | 96.07235 | 35905 ft | 519 kts | 263° |
| 2026-05-03 23:44 | -0.22330 | 96.00076 | 35902 ft | 519 kts | 263° |
| 2026-05-03 23:44 | -0.23181 | 95.92920 | 35899 ft | 519 kts | 263° |
| 2026-05-03 23:45 | -0.24033 | 95.85760 | 35900 ft | 519 kts | 263° |
| 2026-05-03 23:45 | -0.24884 | 95.78598 | 35901 ft | 519 kts | 263° |
| 2026-05-03 23:46 | -0.25736 | 95.71437 | 35900 ft | 519 kts | 263° |
| 2026-05-03 23:46 | -0.26587 | 95.64275 | 35900 ft | 519 kts | 263° |
| 2026-05-03 23:47 | -0.27439 | 95.57114 | 35900 ft | 519 kts | 263° |
| 2026-05-03 23:47 | -0.28290 | 95.49954 | 35900 ft | 519 kts | 263° |
| 2026-05-03 23:48 | -0.29141 | 95.42793 | 35900 ft | 519 kts | 263° |
| 2026-05-03 23:48 | -0.29992 | 95.35638 | 35900 ft | 519 kts | 263° |
| 2026-05-03 23:49 | -0.30843 | 95.28477 | 35903 ft | 519 kts | 263° |
| 2026-05-03 23:49 | -0.31693 | 95.21324 | 35903 ft | 519 kts | 263° |
| 2026-05-03 23:50 | -0.32401 | 95.15374 | 35902 ft | 519 kts | 263° |
| 2026-05-03 23:50 | -0.33395 | 95.07012 | 35903 ft | 519 kts | 263° |
| 2026-05-03 23:51 | -0.34244 | 94.99903 | 35900 ft | 519 kts | 263° |
| 2026-05-03 23:51 | -0.35105 | 94.92702 | 35901 ft | 519 kts | 263° |
| 2026-05-03 23:52 | -0.35955 | 94.85590 | 35900 ft | 519 kts | 263° |
| 2026-05-03 23:52 | -0.36810 | 94.78430 | 35900 ft | 519 kts | 263° |
| 2026-05-03 23:53 | -0.37664 | 94.71276 | 35900 ft | 519 kts | 263° |
| 2026-05-03 23:53 | -0.38519 | 94.64118 | 35901 ft | 518 kts | 263° |
| 2026-05-03 23:54 | -0.39372 | 94.56974 | 35900 ft | 518 kts | 263° |
| 2026-05-03 23:54 | -0.40226 | 94.49822 | 35900 ft | 518 kts | 263° |
| 2026-05-03 23:55 | -0.41079 | 94.42673 | 35897 ft | 518 kts | 263° |
| 2026-05-03 23:55 | -0.41933 | 94.35521 | 35897 ft | 518 kts | 263° |
| 2026-05-03 23:56 | -0.42787 | 94.28364 | 35897 ft | 518 kts | 263° |
| 2026-05-03 23:56 | -0.43641 | 94.21215 | 35894 ft | 518 kts | 263° |
| 2026-05-03 23:57 | -0.44494 | 94.14063 | 35894 ft | 518 kts | 263° |
| 2026-05-03 23:57 | -0.45346 | 94.06926 | 35895 ft | 517 kts | 263° |
| 2026-05-03 23:58 | -0.46198 | 93.99787 | 35897 ft | 517 kts | 263° |
| 2026-05-03 23:58 | -0.47049 | 93.92649 | 35897 ft | 517 kts | 263° |
| 2026-05-03 23:59 | -0.47900 | 93.85516 | 35897 ft | 517 kts | 263° |
| 2026-05-03 23:59 | -0.48752 | 93.78378 | 35897 ft | 517 kts | 263° |
| 2026-05-04 00:00 | -0.49603 | 93.71240 | 35898 ft | 518 kts | 263° |
| 2026-05-04 00:00 | -0.50455 | 93.64101 | 35897 ft | 518 kts | 263° |
| 2026-05-04 00:01 | -0.51163 | 93.58166 | 35899 ft | 518 kts | 263° |
| 2026-05-04 00:01 | -0.52014 | 93.51023 | 35900 ft | 518 kts | 263° |
| 2026-05-04 00:02 | -0.52866 | 93.43880 | 35896 ft | 518 kts | 263° |
| 2026-05-04 00:02 | -0.53718 | 93.36734 | 35894 ft | 518 kts | 263° |
| 2026-05-04 00:03 | -0.54569 | 93.29597 | 35892 ft | 518 kts | 263° |
| 2026-05-04 00:03 | -0.55420 | 93.22455 | 35892 ft | 518 kts | 263° |
| 2026-05-04 00:04 | -0.56266 | 93.15361 | 35891 ft | 518 kts | 263° |
| 2026-05-04 00:04 | -0.57123 | 93.08170 | 35892 ft | 518 kts | 263° |
| 2026-05-04 00:05 | -0.57973 | 93.01031 | 35892 ft | 518 kts | 263° |
| 2026-05-04 00:05 | -0.58826 | 92.93874 | 35892 ft | 519 kts | 263° |
| 2026-05-04 00:06 | -0.59679 | 92.86718 | 35889 ft | 519 kts | 263° |
| 2026-05-04 00:06 | -0.60532 | 92.79555 | 35889 ft | 519 kts | 263° |
| 2026-05-04 00:07 | -0.61384 | 92.72398 | 35892 ft | 519 kts | 263° |
| 2026-05-04 00:07 | -0.62232 | 92.65284 | 35891 ft | 519 kts | 263° |
| 2026-05-04 00:08 | -0.63083 | 92.58133 | 35887 ft | 518 kts | 263° |
| 2026-05-04 00:08 | -0.63935 | 92.50976 | 35886 ft | 518 kts | 263° |
| 2026-05-04 00:09 | -0.64787 | 92.43823 | 35886 ft | 518 kts | 263° |
| 2026-05-04 00:09 | -0.65638 | 92.36677 | 35886 ft | 518 kts | 263° |
| 2026-05-04 00:10 | -0.66489 | 92.29522 | 35888 ft | 518 kts | 263° |
| 2026-05-04 00:10 | -0.67340 | 92.22378 | 35889 ft | 517 kts | 263° |
| 2026-05-04 00:11 | -0.68188 | 92.15247 | 35889 ft | 517 kts | 263° |
| 2026-05-04 00:11 | -0.69036 | 92.08119 | 35889 ft | 517 kts | 263° |
| 2026-05-04 00:12 | -0.69884 | 92.00989 | 35887 ft | 517 kts | 263° |
| 2026-05-04 00:12 | -0.70695 | 91.93858 | 35886 ft | 517 kts | 264° |
| 2026-05-04 00:13 | -0.71431 | 91.86719 | 35888 ft | 516 kts | 264° |
| 2026-05-04 00:13 | -0.72164 | 91.79596 | 35887 ft | 515 kts | 264° |
| 2026-05-04 00:14 | -0.72906 | 91.72521 | 35886 ft | 515 kts | 264° |
| 2026-05-04 00:14 | -0.73658 | 91.65399 | 35886 ft | 515 kts | 264° |
| 2026-05-04 00:15 | -0.74412 | 91.58278 | 35886 ft | 515 kts | 264° |
| 2026-05-04 00:15 | -0.75165 | 91.51156 | 35883 ft | 515 kts | 264° |
| 2026-05-04 00:16 | -0.75917 | 91.44037 | 35885 ft | 515 kts | 264° |
| 2026-05-04 00:16 | -0.76668 | 91.36920 | 35887 ft | 515 kts | 264° |
| 2026-05-04 00:17 | -0.77418 | 91.29818 | 35886 ft | 513 kts | 264° |
| 2026-05-04 00:17 | -0.78167 | 91.22728 | 35886 ft | 513 kts | 264° |
| 2026-05-04 00:18 | -0.78915 | 91.15644 | 35884 ft | 513 kts | 264° |
| 2026-05-04 00:18 | -0.79663 | 91.08553 | 35883 ft | 513 kts | 264° |
| 2026-05-04 00:19 | -0.80411 | 91.01465 | 35882 ft | 513 kts | 264° |
| 2026-05-04 00:19 | -0.81159 | 90.94381 | 35883 ft | 513 kts | 264° |
| 2026-05-04 00:20 | -0.81906 | 90.87300 | 35883 ft | 513 kts | 264° |
| 2026-05-04 00:20 | -0.82653 | 90.80219 | 35883 ft | 513 kts | 264° |
| 2026-05-04 00:21 | -0.83400 | 90.73135 | 35881 ft | 513 kts | 264° |
| 2026-05-04 00:21 | -0.84148 | 90.66046 | 35881 ft | 513 kts | 264° |
| 2026-05-04 00:22 | -0.84894 | 90.58964 | 35882 ft | 513 kts | 264° |
| 2026-05-04 00:22 | -0.85641 | 90.51880 | 35882 ft | 513 kts | 264° |
| 2026-05-04 00:23 | -0.86388 | 90.44794 | 35880 ft | 513 kts | 264° |
| 2026-05-04 00:23 | -0.87135 | 90.37704 | 35879 ft | 513 kts | 264° |
| 2026-05-04 00:24 | -0.87876 | 90.30672 | 35882 ft | 512 kts | 264° |
| 2026-05-04 00:24 | -0.88621 | 90.23596 | 35880 ft | 512 kts | 264° |
| 2026-05-04 00:25 | -0.89367 | 90.16515 | 35881 ft | 512 kts | 264° |
| 2026-05-04 00:25 | -0.90112 | 90.09437 | 35877 ft | 512 kts | 264° |
| 2026-05-04 00:26 | -0.90856 | 90.02364 | 35879 ft | 512 kts | 264° |
| 2026-05-04 00:26 | -0.91601 | 89.95292 | 35877 ft | 511 kts | 264° |
| 2026-05-04 00:27 | -0.92344 | 89.88229 | 35882 ft | 511 kts | 264° |
| 2026-05-04 00:27 | -0.93087 | 89.81164 | 35882 ft | 511 kts | 264° |
| 2026-05-04 00:28 | -0.93830 | 89.74103 | 35883 ft | 511 kts | 264° |
| 2026-05-04 00:28 | -0.94573 | 89.67038 | 35882 ft | 511 kts | 264° |
| 2026-05-04 00:29 | -0.95316 | 89.59976 | 35879 ft | 511 kts | 264° |
| 2026-05-04 00:29 | -0.96058 | 89.52916 | 35881 ft | 511 kts | 264° |
| 2026-05-04 00:30 | -0.96800 | 89.45852 | 35882 ft | 511 kts | 264° |
| 2026-05-04 00:30 | -0.97542 | 89.38791 | 35880 ft | 511 kts | 264° |
| 2026-05-04 00:31 | -0.98285 | 89.31727 | 35881 ft | 511 kts | 264° |
| 2026-05-04 00:31 | -0.99027 | 89.24660 | 35881 ft | 511 kts | 264° |
| 2026-05-04 00:32 | -0.99769 | 89.17591 | 35878 ft | 512 kts | 264° |
| 2026-05-04 00:32 | -1.00513 | 89.10511 | 35877 ft | 512 kts | 264° |
| 2026-05-04 00:33 | -1.01627 | 88.99891 | 35878 ft | 512 kts | 264° |
| 2026-05-04 00:34 | -1.02370 | 88.92812 | 35877 ft | 512 kts | 264° |
| 2026-05-04 00:34 | -1.03113 | 88.85730 | 35879 ft | 512 kts | 264° |
| 2026-05-04 00:35 | -1.03855 | 88.78655 | 35879 ft | 512 kts | 264° |
| 2026-05-04 00:35 | -1.04596 | 88.71587 | 35877 ft | 511 kts | 264° |
| 2026-05-04 00:36 | -1.05336 | 88.64520 | 35878 ft | 511 kts | 264° |
| 2026-05-04 00:36 | -1.06077 | 88.57453 | 35874 ft | 511 kts | 264° |
| 2026-05-04 00:37 | -1.06817 | 88.50389 | 35875 ft | 511 kts | 264° |
| 2026-05-04 00:37 | -1.07557 | 88.43322 | 35874 ft | 510 kts | 265° |
| 2026-05-04 00:38 | -1.08295 | 88.36276 | 35874 ft | 509 kts | 265° |
| 2026-05-04 00:38 | -1.09026 | 88.29287 | 35874 ft | 509 kts | 265° |
| 2026-05-04 00:39 | -1.09762 | 88.22258 | 35874 ft | 509 kts | 265° |
| 2026-05-04 00:39 | -1.10498 | 88.15222 | 35872 ft | 509 kts | 265° |
| 2026-05-04 00:40 | -1.11234 | 88.08183 | 35872 ft | 509 kts | 265° |
| 2026-05-04 00:40 | -1.11968 | 88.01165 | 35876 ft | 508 kts | 265° |
| 2026-05-04 00:41 | -1.12702 | 87.94152 | 35874 ft | 507 kts | 265° |
| 2026-05-04 00:41 | -1.13434 | 87.87143 | 35876 ft | 507 kts | 265° |
| 2026-05-04 00:42 | -1.14167 | 87.80133 | 35876 ft | 507 kts | 265° |
| 2026-05-04 00:42 | -1.14899 | 87.73123 | 35877 ft | 507 kts | 265° |
| 2026-05-04 00:43 | -1.15632 | 87.66106 | 35872 ft | 509 kts | 265° |
| 2026-05-04 00:43 | -1.16367 | 87.59064 | 35872 ft | 510 kts | 265° |
| 2026-05-04 00:44 | -1.17103 | 87.52018 | 35874 ft | 510 kts | 265° |
| 2026-05-04 00:44 | -1.17834 | 87.45021 | 35872 ft | 510 kts | 265° |
| 2026-05-04 00:45 | -1.18569 | 87.37977 | 35872 ft | 510 kts | 265° |
| 2026-05-04 00:45 | -1.19304 | 87.30934 | 35875 ft | 510 kts | 265° |
| 2026-05-04 00:46 | -1.20040 | 87.23880 | 35877 ft | 511 kts | 265° |
| 2026-05-04 00:46 | -1.20776 | 87.16817 | 35875 ft | 511 kts | 265° |
| 2026-05-04 00:47 | -1.21515 | 87.09759 | 35874 ft | 511 kts | 265° |
| 2026-05-04 00:47 | -1.22249 | 87.02699 | 35878 ft | 511 kts | 265° |
| 2026-05-04 00:48 | -1.22982 | 86.95636 | 35878 ft | 511 kts | 265° |
| 2026-05-04 00:48 | -1.23716 | 86.88581 | 35878 ft | 510 kts | 265° |
| 2026-05-04 00:49 | -1.24449 | 86.81531 | 35879 ft | 510 kts | 265° |
| 2026-05-04 00:49 | -1.25182 | 86.74488 | 35877 ft | 510 kts | 265° |
| 2026-05-04 00:50 | -1.25790 | 86.68635 | 35879 ft | 510 kts | 265° |
| 2026-05-04 00:50 | -1.26523 | 86.61589 | 35878 ft | 510 kts | 265° |
| 2026-05-04 00:51 | -1.27255 | 86.54546 | 35879 ft | 509 kts | 265° |
| 2026-05-04 00:51 | -1.27986 | 86.47511 | 35880 ft | 509 kts | 265° |
| 2026-05-04 00:52 | -1.28716 | 86.40482 | 35880 ft | 508 kts | 265° |
| 2026-05-04 00:52 | -1.29445 | 86.33457 | 35882 ft | 508 kts | 265° |
| 2026-05-04 00:53 | -1.30175 | 86.26428 | 35882 ft | 508 kts | 265° |
| 2026-05-04 00:53 | -1.30905 | 86.19400 | 35881 ft | 508 kts | 265° |
| 2026-05-04 00:54 | -1.31633 | 86.12376 | 35877 ft | 508 kts | 265° |
| 2026-05-04 00:54 | -1.32361 | 86.05360 | 35879 ft | 507 kts | 265° |
| 2026-05-04 00:55 | -1.33088 | 85.98350 | 35877 ft | 507 kts | 265° |
| 2026-05-04 00:55 | -1.33815 | 85.91337 | 35882 ft | 507 kts | 265° |
| 2026-05-04 00:56 | -1.34542 | 85.84320 | 35880 ft | 507 kts | 265° |
| 2026-05-04 00:56 | -1.35269 | 85.77308 | 35880 ft | 507 kts | 265° |
| 2026-05-04 00:57 | -1.35996 | 85.70294 | 35882 ft | 507 kts | 265° |
| 2026-05-04 00:57 | -1.36722 | 85.63278 | 35882 ft | 507 kts | 265° |
| 2026-05-04 00:58 | -1.37448 | 85.56264 | 35882 ft | 507 kts | 265° |
| 2026-05-04 00:58 | -1.38174 | 85.49252 | 35880 ft | 507 kts | 265° |
| 2026-05-04 00:59 | -1.38895 | 85.42284 | 35873 ft | 507 kts | 265° |
| 2026-05-04 00:59 | -1.39619 | 85.35289 | 35877 ft | 505 kts | 265° |
| 2026-05-04 01:00 | -1.40341 | 85.28305 | 35880 ft | 505 kts | 265° |
| 2026-05-04 01:00 | -1.41062 | 85.21332 | 35877 ft | 505 kts | 265° |
| 2026-05-04 01:01 | -1.41782 | 85.14361 | 35879 ft | 505 kts | 265° |
| 2026-05-04 01:01 | -1.42503 | 85.07384 | 35884 ft | 505 kts | 265° |
| 2026-05-04 01:02 | -1.43223 | 85.00413 | 35883 ft | 504 kts | 265° |
| 2026-05-04 01:02 | -1.44030 | 84.93471 | 35879 ft | 503 kts | 260° |
| 2026-05-04 01:02 | -1.44915 | 84.90087 | 36009 ft | 504 kts | 251° |
| 2026-05-04 01:03 | -1.46314 | 84.86883 | 36288 ft | 502 kts | 242° |
| 2026-05-04 01:03 | -1.48175 | 84.83932 | 36513 ft | 502 kts | 236° |
| 2026-05-04 01:03 | -1.50209 | 84.81104 | 36739 ft | 501 kts | 234° |
| 2026-05-04 01:03 | -1.52314 | 84.78323 | 36924 ft | 501 kts | 233° |
| 2026-05-04 01:04 | -1.54447 | 84.75567 | 37019 ft | 503 kts | 233° |
| 2026-05-04 01:04 | -1.56593 | 84.72809 | 37156 ft | 503 kts | 233° |
| 2026-05-04 01:04 | -1.58736 | 84.70045 | 37323 ft | 502 kts | 233° |
| 2026-05-04 01:04 | -1.60868 | 84.67282 | 37532 ft | 502 kts | 233° |
| 2026-05-04 01:05 | -1.62987 | 84.64520 | 37706 ft | 500 kts | 233° |
| 2026-05-04 01:05 | -1.65100 | 84.61758 | 37857 ft | 501 kts | 233° |
| 2026-05-04 01:05 | -1.67216 | 84.58986 | 37882 ft | 503 kts | 233° |
| 2026-05-04 01:06 | -1.71467 | 84.53412 | 37884 ft | 504 kts | 233° |
| 2026-05-04 01:06 | -1.75717 | 84.47841 | 37884 ft | 504 kts | 233° |
| 2026-05-04 01:07 | -1.79968 | 84.42270 | 37884 ft | 504 kts | 233° |
| 2026-05-04 01:07 | -1.84217 | 84.36701 | 37886 ft | 504 kts | 233° |
| 2026-05-04 01:08 | -1.88464 | 84.31135 | 37885 ft | 504 kts | 233° |
| 2026-05-04 01:08 | -1.92718 | 84.25558 | 37881 ft | 506 kts | 233° |
| 2026-05-04 01:09 | -1.97013 | 84.19929 | 37880 ft | 510 kts | 233° |
| 2026-05-04 01:09 | -2.00851 | 84.13990 | 37889 ft | 509 kts | 244° |
| 2026-05-04 01:10 | -2.03937 | 84.07625 | 37883 ft | 509 kts | 246° |
| 2026-05-04 01:10 | -2.06891 | 84.01194 | 37883 ft | 509 kts | 246° |
| 2026-05-04 01:11 | -2.09833 | 83.94761 | 37886 ft | 509 kts | 246° |
| 2026-05-04 01:11 | -2.12772 | 83.88373 | 37880 ft | 509 kts | 245° |
| 2026-05-04 01:12 | -2.15764 | 83.81893 | 37883 ft | 510 kts | 245° |
| 2026-05-04 01:12 | -2.18719 | 83.75500 | 37882 ft | 510 kts | 245° |
| 2026-05-04 01:13 | -2.21695 | 83.69058 | 37882 ft | 510 kts | 245° |
| 2026-05-04 01:13 | -2.24672 | 83.62612 | 37882 ft | 510 kts | 245° |
| 2026-05-04 01:14 | -2.27645 | 83.56174 | 37882 ft | 510 kts | 245° |
| 2026-05-04 01:14 | -2.30616 | 83.49739 | 37885 ft | 509 kts | 246° |
| 2026-05-04 01:15 | -2.33577 | 83.43323 | 37884 ft | 508 kts | 246° |
| 2026-05-04 01:15 | -2.36541 | 83.36900 | 37884 ft | 508 kts | 246° |
| 2026-05-04 01:16 | -2.39504 | 83.30480 | 37882 ft | 508 kts | 246° |
| 2026-05-04 01:16 | -2.42466 | 83.24061 | 37884 ft | 508 kts | 246° |
| 2026-05-04 01:17 | -2.45428 | 83.17639 | 37885 ft | 508 kts | 246° |
| 2026-05-04 01:17 | -2.48387 | 83.11225 | 37887 ft | 507 kts | 246° |
| 2026-05-04 01:18 | -2.51341 | 83.04821 | 37888 ft | 507 kts | 246° |
| 2026-05-04 01:18 | -2.54293 | 82.98420 | 37889 ft | 507 kts | 246° |
| 2026-05-04 01:19 | -2.57242 | 82.92023 | 37885 ft | 507 kts | 246° |
| 2026-05-04 01:19 | -2.60192 | 82.85623 | 37886 ft | 507 kts | 246° |
| 2026-05-04 01:20 | -2.63143 | 82.79221 | 37890 ft | 507 kts | 246° |
| 2026-05-04 01:20 | -2.66094 | 82.72819 | 37887 ft | 507 kts | 246° |
| 2026-05-04 01:21 | -2.69047 | 82.66409 | 37887 ft | 508 kts | 246° |
| 2026-05-04 01:21 | -2.71985 | 82.60030 | 37889 ft | 508 kts | 246° |
| 2026-05-04 01:22 | -2.74942 | 82.53610 | 37887 ft | 508 kts | 246° |
| 2026-05-04 01:22 | -2.77900 | 82.47189 | 37890 ft | 508 kts | 246° |
| 2026-05-04 01:23 | -2.80856 | 82.40769 | 37888 ft | 508 kts | 246° |
| 2026-05-04 01:23 | -2.83813 | 82.34347 | 37888 ft | 508 kts | 246° |
| 2026-05-04 01:24 | -2.86769 | 82.27925 | 37889 ft | 508 kts | 246° |
| 2026-05-04 01:24 | -2.89724 | 82.21504 | 37887 ft | 508 kts | 246° |
| 2026-05-04 01:25 | -2.92678 | 82.15084 | 37889 ft | 508 kts | 246° |
| 2026-05-04 01:25 | -2.95633 | 82.08662 | 37889 ft | 508 kts | 246° |
| 2026-05-04 01:26 | -2.98585 | 82.02244 | 37888 ft | 508 kts | 246° |
| 2026-05-04 01:26 | -3.01539 | 81.95819 | 37888 ft | 508 kts | 246° |
| 2026-05-04 01:27 | -3.04495 | 81.89392 | 37890 ft | 509 kts | 246° |
| 2026-05-04 01:27 | -3.07453 | 81.82956 | 37889 ft | 509 kts | 246° |
| 2026-05-04 01:28 | -3.10413 | 81.76517 | 37888 ft | 509 kts | 246° |
| 2026-05-04 01:28 | -3.13355 | 81.70117 | 37890 ft | 509 kts | 246° |
| 2026-05-04 01:29 | -3.16314 | 81.63676 | 37892 ft | 510 kts | 246° |
| 2026-05-04 01:29 | -3.19280 | 81.57220 | 37892 ft | 511 kts | 246° |
| 2026-05-04 01:30 | -3.22249 | 81.50756 | 37895 ft | 511 kts | 246° |
| 2026-05-04 01:30 | -3.25217 | 81.44291 | 37890 ft | 511 kts | 246° |
| 2026-05-04 01:31 | -3.28187 | 81.37824 | 37892 ft | 511 kts | 246° |
| 2026-05-04 01:31 | -3.31156 | 81.31356 | 37893 ft | 511 kts | 246° |
| 2026-05-04 01:32 | -3.34126 | 81.24884 | 37897 ft | 512 kts | 246° |
| 2026-05-04 01:32 | -3.37096 | 81.18411 | 37894 ft | 512 kts | 246° |
| 2026-05-04 01:33 | -3.40066 | 81.11938 | 37895 ft | 512 kts | 246° |
| 2026-05-04 01:33 | -3.43037 | 81.05458 | 37897 ft | 512 kts | 246° |
| 2026-05-04 01:34 | -3.46006 | 80.98985 | 37899 ft | 512 kts | 246° |
| 2026-05-04 01:34 | -3.48976 | 80.92507 | 37892 ft | 512 kts | 246° |
| 2026-05-04 01:35 | -3.51942 | 80.86039 | 37894 ft | 511 kts | 247° |
| 2026-05-04 01:35 | -3.54900 | 80.79582 | 37894 ft | 510 kts | 247° |
| 2026-05-04 01:36 | -3.57851 | 80.73134 | 37899 ft | 510 kts | 247° |
| 2026-05-04 01:36 | -3.60805 | 80.66681 | 37899 ft | 510 kts | 247° |
| 2026-05-04 01:37 | -3.63758 | 80.60231 | 37897 ft | 510 kts | 247° |
| 2026-05-04 01:37 | -3.66210 | 80.54873 | 37899 ft | 510 kts | 247° |
| 2026-05-04 01:38 | -3.69159 | 80.48430 | 37902 ft | 507 kts | 247° |
| 2026-05-04 01:38 | -3.72092 | 80.42019 | 37902 ft | 506 kts | 247° |
| 2026-05-04 01:39 | -3.75021 | 80.35613 | 37901 ft | 506 kts | 247° |
| 2026-05-04 01:39 | -3.77956 | 80.29195 | 37904 ft | 509 kts | 247° |
| 2026-05-04 01:40 | -3.80909 | 80.22735 | 37902 ft | 511 kts | 247° |
| 2026-05-04 01:40 | -3.83865 | 80.16268 | 37907 ft | 510 kts | 247° |
| 2026-05-04 01:41 | -3.86810 | 80.09827 | 37899 ft | 507 kts | 247° |
| 2026-05-04 01:41 | -3.89743 | 80.03406 | 37904 ft | 507 kts | 247° |
| 2026-05-04 01:42 | -3.92652 | 79.97037 | 37905 ft | 506 kts | 247° |
| 2026-05-04 01:42 | -3.95580 | 79.90624 | 37901 ft | 506 kts | 247° |
| 2026-05-04 01:43 | -3.98508 | 79.84210 | 37906 ft | 506 kts | 247° |
| 2026-05-04 01:43 | -4.01437 | 79.77793 | 37906 ft | 506 kts | 247° |
| 2026-05-04 01:44 | -4.04362 | 79.71381 | 37907 ft | 506 kts | 247° |
| 2026-05-04 01:44 | -4.07289 | 79.64967 | 37907 ft | 506 kts | 247° |
| 2026-05-04 01:45 | -4.10214 | 79.58554 | 37908 ft | 506 kts | 247° |
| 2026-05-04 01:45 | -4.14605 | 79.48927 | 37909 ft | 507 kts | 248° |
| 2026-05-04 01:46 | -4.17537 | 79.42492 | 37913 ft | 508 kts | 248° |
| 2026-05-04 01:46 | -4.20472 | 79.36049 | 37909 ft | 508 kts | 247° |
| 2026-05-04 01:47 | -4.23407 | 79.29607 | 37909 ft | 508 kts | 247° |
| 2026-05-04 01:47 | -4.26344 | 79.23161 | 37910 ft | 508 kts | 247° |
| 2026-05-04 01:48 | -4.29278 | 79.16717 | 37911 ft | 508 kts | 247° |
| 2026-05-04 01:48 | -4.32213 | 79.10270 | 37915 ft | 509 kts | 247° |
| 2026-05-04 01:49 | -4.35147 | 79.03823 | 37911 ft | 509 kts | 247° |
| 2026-05-04 01:49 | -4.38088 | 78.97358 | 37911 ft | 510 kts | 247° |
| 2026-05-04 01:50 | -4.41031 | 78.90888 | 37912 ft | 510 kts | 247° |
| 2026-05-04 01:50 | -4.43972 | 78.84421 | 37910 ft | 510 kts | 247° |
| 2026-05-04 01:51 | -4.46913 | 78.77951 | 37912 ft | 510 kts | 247° |
| 2026-05-04 01:51 | -4.49855 | 78.71480 | 37913 ft | 510 kts | 247° |
| 2026-05-04 01:52 | -4.52777 | 78.65048 | 37913 ft | 510 kts | 247° |
| 2026-05-04 01:52 | -4.55710 | 78.58591 | 37914 ft | 509 kts | 247° |
| 2026-05-04 01:53 | -4.58640 | 78.52140 | 37910 ft | 509 kts | 247° |
| 2026-05-04 01:53 | -4.61570 | 78.45685 | 37911 ft | 509 kts | 247° |
| 2026-05-04 01:54 | -4.64500 | 78.39230 | 37911 ft | 509 kts | 247° |
| 2026-05-04 01:54 | -4.67426 | 78.32781 | 37911 ft | 509 kts | 247° |
| 2026-05-04 01:55 | -4.70355 | 78.26323 | 37911 ft | 509 kts | 247° |
| 2026-05-04 01:55 | -4.73282 | 78.19869 | 37914 ft | 509 kts | 247° |
| 2026-05-04 01:56 | -4.76209 | 78.13412 | 37917 ft | 508 kts | 247° |
| 2026-05-04 01:56 | -4.79132 | 78.06962 | 37913 ft | 508 kts | 247° |
| 2026-05-04 01:57 | -4.82056 | 78.00508 | 37909 ft | 508 kts | 247° |
| 2026-05-04 01:57 | -4.84981 | 77.94052 | 37911 ft | 508 kts | 247° |
| 2026-05-04 01:58 | -4.87897 | 77.87615 | 37907 ft | 506 kts | 247° |
| 2026-05-04 01:58 | -4.90806 | 77.81186 | 37908 ft | 506 kts | 247° |
| 2026-05-04 01:59 | -4.93713 | 77.74761 | 37909 ft | 506 kts | 247° |
| 2026-05-04 01:59 | -4.96622 | 77.68331 | 37913 ft | 506 kts | 247° |
| 2026-05-04 02:00 | -4.99527 | 77.61906 | 37912 ft | 506 kts | 247° |
| 2026-05-04 02:00 | -5.02415 | 77.55519 | 37911 ft | 506 kts | 246° |
| 2026-05-04 02:01 | -5.05321 | 77.49089 | 37913 ft | 506 kts | 246° |
| 2026-05-04 02:01 | -5.08227 | 77.42658 | 37916 ft | 506 kts | 246° |
| 2026-05-04 02:02 | -5.11137 | 77.36218 | 37914 ft | 506 kts | 246° |
| 2026-05-04 02:02 | -5.14041 | 77.29787 | 37909 ft | 506 kts | 246° |
| 2026-05-04 02:03 | -5.16945 | 77.23354 | 37911 ft | 506 kts | 246° |
| 2026-05-04 02:03 | -5.19844 | 77.16929 | 37912 ft | 505 kts | 246° |
| 2026-05-04 02:04 | -5.22743 | 77.10505 | 37912 ft | 507 kts | 247° |
| 2026-05-04 02:04 | -5.25648 | 77.04062 | 37916 ft | 507 kts | 247° |
| 2026-05-04 02:05 | -5.28559 | 76.97607 | 37912 ft | 507 kts | 247° |
| 2026-05-04 02:05 | -5.31466 | 76.91157 | 37918 ft | 507 kts | 247° |
| 2026-05-04 02:06 | -5.34373 | 76.84703 | 37916 ft | 507 kts | 247° |
| 2026-05-04 02:06 | -5.37277 | 76.78257 | 37919 ft | 507 kts | 247° |
| 2026-05-04 02:07 | -5.40183 | 76.71802 | 37919 ft | 507 kts | 247° |
| 2026-05-04 02:07 | -5.43085 | 76.65357 | 37918 ft | 507 kts | 247° |
| 2026-05-04 02:08 | -5.45988 | 76.58905 | 37920 ft | 507 kts | 247° |
| 2026-05-04 02:08 | -5.48889 | 76.52455 | 37920 ft | 507 kts | 247° |
| 2026-05-04 02:09 | -5.51789 | 76.46007 | 37922 ft | 506 kts | 247° |
| 2026-05-04 02:09 | -5.54684 | 76.39567 | 37918 ft | 506 kts | 247° |
| 2026-05-04 02:10 | -5.57577 | 76.33129 | 37922 ft | 507 kts | 247° |
| 2026-05-04 02:10 | -5.60474 | 76.26681 | 37921 ft | 507 kts | 247° |
| 2026-05-04 02:11 | -5.63371 | 76.20228 | 37926 ft | 507 kts | 247° |
| 2026-05-04 02:11 | -5.66269 | 76.13772 | 37929 ft | 507 kts | 247° |
| 2026-05-04 02:12 | -5.69137 | 76.07381 | 37922 ft | 505 kts | 247° |
| 2026-05-04 02:12 | -5.72017 | 76.00963 | 37924 ft | 504 kts | 247° |
| 2026-05-04 02:13 | -5.74895 | 75.94544 | 37926 ft | 504 kts | 247° |
| 2026-05-04 02:13 | -5.77773 | 75.88123 | 37926 ft | 504 kts | 247° |
| 2026-05-04 02:14 | -5.80650 | 75.81703 | 37924 ft | 504 kts | 247° |
| 2026-05-04 02:14 | -5.83525 | 75.75284 | 37921 ft | 504 kts | 246° |
| 2026-05-04 02:15 | -5.86399 | 75.68866 | 37923 ft | 504 kts | 246° |
| 2026-05-04 02:15 | -5.89273 | 75.62447 | 37928 ft | 504 kts | 246° |
| 2026-05-04 02:16 | -5.92143 | 75.56034 | 37925 ft | 503 kts | 246° |
| 2026-05-04 02:16 | -5.95009 | 75.49627 | 37930 ft | 503 kts | 246° |
| 2026-05-04 02:17 | -5.97873 | 75.43222 | 37928 ft | 502 kts | 246° |
| 2026-05-04 02:17 | -6.00738 | 75.36814 | 37930 ft | 503 kts | 246° |
| 2026-05-04 02:18 | -6.03603 | 75.30401 | 37931 ft | 503 kts | 246° |
| 2026-05-04 02:18 | -6.06470 | 75.23982 | 37926 ft | 503 kts | 246° |
| 2026-05-04 02:19 | -6.09333 | 75.17569 | 37930 ft | 503 kts | 246° |
| 2026-05-04 02:19 | -6.12199 | 75.11150 | 37926 ft | 503 kts | 246° |
| 2026-05-04 02:20 | -6.15063 | 75.04732 | 37930 ft | 503 kts | 247° |
| 2026-05-04 02:20 | -6.17927 | 74.98310 | 37934 ft | 503 kts | 247° |
| 2026-05-04 02:21 | -6.20788 | 74.91893 | 37928 ft | 503 kts | 247° |
| 2026-05-04 02:21 | -6.23630 | 74.85514 | 37933 ft | 503 kts | 247° |
| 2026-05-04 02:22 | -6.26490 | 74.79093 | 37933 ft | 503 kts | 246° |
| 2026-05-04 02:22 | -6.29346 | 74.72680 | 37929 ft | 503 kts | 246° |
| 2026-05-04 02:23 | -6.32202 | 74.66265 | 37930 ft | 503 kts | 246° |
| 2026-05-04 02:23 | -6.35058 | 74.59848 | 37934 ft | 503 kts | 246° |
| 2026-05-04 02:24 | -6.37909 | 74.53437 | 37936 ft | 503 kts | 246° |
| 2026-05-04 02:24 | -6.40762 | 74.47021 | 37937 ft | 503 kts | 246° |
| 2026-05-04 02:25 | -6.43614 | 74.40604 | 37934 ft | 503 kts | 246° |
| 2026-05-04 02:25 | -6.46464 | 74.34189 | 37934 ft | 503 kts | 246° |
| 2026-05-04 02:26 | -6.48834 | 74.28851 | 37934 ft | 503 kts | 246° |
| 2026-05-04 02:26 | -6.51689 | 74.22421 | 37934 ft | 503 kts | 246° |
| 2026-05-04 02:27 | -6.54540 | 74.15997 | 37931 ft | 503 kts | 246° |
| 2026-05-04 02:27 | -6.57393 | 74.09567 | 37931 ft | 503 kts | 246° |
| 2026-05-04 02:28 | -6.60243 | 74.03138 | 37935 ft | 503 kts | 246° |
| 2026-05-04 02:28 | -6.63088 | 73.96719 | 37934 ft | 502 kts | 246° |
| 2026-05-04 02:29 | -6.65928 | 73.90310 | 37937 ft | 501 kts | 246° |
| 2026-05-04 02:29 | -6.68746 | 73.83949 | 37937 ft | 501 kts | 246° |
| 2026-05-04 02:30 | -6.71581 | 73.77545 | 37935 ft | 501 kts | 246° |
| 2026-05-04 02:30 | -6.74413 | 73.71140 | 37986 ft | 501 kts | 246° |
| 2026-05-04 02:31 | -6.77238 | 73.64739 | 38018 ft | 500 kts | 246° |
| 2026-05-04 02:31 | -6.80029 | 73.58340 | 38091 ft | 499 kts | 246° |
| 2026-05-04 02:32 | -6.82781 | 73.51946 | 38158 ft | 498 kts | 247° |
| 2026-05-04 02:32 | -6.85511 | 73.45534 | 38095 ft | 499 kts | 247° |
| 2026-05-04 02:33 | -6.88228 | 73.39103 | 38073 ft | 500 kts | 247° |
| 2026-05-04 02:33 | -6.90936 | 73.32661 | 38116 ft | 499 kts | 247° |
| 2026-05-04 02:34 | -6.93626 | 73.26230 | 38158 ft | 498 kts | 247° |
| 2026-05-04 02:34 | -6.96307 | 73.19795 | 38150 ft | 499 kts | 247° |
| 2026-05-04 02:35 | -6.98979 | 73.13344 | 38125 ft | 499 kts | 248° |
| 2026-05-04 02:35 | -7.01640 | 73.06890 | 38129 ft | 499 kts | 248° |
| 2026-05-04 02:36 | -7.04291 | 73.00433 | 38147 ft | 499 kts | 248° |
| 2026-05-04 02:36 | -7.06933 | 72.93977 | 38131 ft | 499 kts | 248° |
| 2026-05-04 02:37 | -7.09570 | 72.87519 | 38125 ft | 499 kts | 248° |
| 2026-05-04 02:37 | -7.12201 | 72.81053 | 38134 ft | 499 kts | 248° |
| 2026-05-04 02:38 | -7.14798 | 72.74634 | 38130 ft | 498 kts | 248° |
| 2026-05-04 02:38 | -7.17405 | 72.68161 | 38108 ft | 499 kts | 248° |
| 2026-05-04 02:39 | -7.20026 | 72.61692 | 38107 ft | 499 kts | 248° |
| 2026-05-04 02:39 | -7.22651 | 72.55228 | 38112 ft | 498 kts | 248° |
| 2026-05-04 02:40 | -7.25270 | 72.48768 | 38096 ft | 498 kts | 248° |
| 2026-05-04 02:40 | -7.27900 | 72.42295 | 38063 ft | 499 kts | 248° |
| 2026-05-04 02:41 | -7.30518 | 72.35820 | 38088 ft | 499 kts | 248° |
| 2026-05-04 02:41 | -7.33115 | 72.29350 | 38116 ft | 498 kts | 248° |
| 2026-05-04 02:42 | -7.35693 | 72.22869 | 38110 ft | 499 kts | 249° |
| 2026-05-04 02:42 | -7.38246 | 72.16361 | 38041 ft | 500 kts | 249° |
| 2026-05-04 02:43 | -7.40773 | 72.09826 | 38072 ft | 500 kts | 249° |
| 2026-05-04 02:43 | -7.43261 | 72.03299 | 38133 ft | 499 kts | 249° |
| 2026-05-04 02:44 | -7.45716 | 71.96764 | 38108 ft | 499 kts | 250° |
| 2026-05-04 02:44 | -7.48144 | 71.90202 | 38067 ft | 500 kts | 250° |
| 2026-05-04 02:45 | -7.50537 | 71.83628 | 38083 ft | 499 kts | 250° |
| 2026-05-04 02:45 | -7.52891 | 71.77056 | 38133 ft | 498 kts | 250° |
| 2026-05-04 02:46 | -7.55213 | 71.70470 | 38100 ft | 499 kts | 251° |
| 2026-05-04 02:46 | -7.57511 | 71.63861 | 38070 ft | 500 kts | 251° |
| 2026-05-04 02:47 | -7.59793 | 71.57260 | 38148 ft | 498 kts | 251° |
| 2026-05-04 02:47 | -7.62040 | 71.50717 | 38169 ft | 497 kts | 251° |
| 2026-05-04 02:48 | -7.64284 | 71.44104 | 38047 ft | 500 kts | 251° |
| 2026-05-04 02:48 | -7.66512 | 71.37456 | 38034 ft | 500 kts | 252° |
| 2026-05-04 02:49 | -7.68706 | 71.30822 | 38133 ft | 498 kts | 252° |
| 2026-05-04 02:49 | -7.70866 | 71.24192 | 38135 ft | 498 kts | 252° |
| 2026-05-04 02:50 | -7.73003 | 71.17534 | 38059 ft | 500 kts | 252° |
| 2026-05-04 02:50 | -7.75115 | 71.10861 | 38063 ft | 499 kts | 252° |
| 2026-05-04 02:51 | -7.77197 | 71.04192 | 38110 ft | 498 kts | 253° |
| 2026-05-04 02:51 | -7.79250 | 70.97514 | 38098 ft | 499 kts | 253° |
| 2026-05-04 02:52 | -7.81277 | 70.90821 | 38065 ft | 499 kts | 253° |
| 2026-05-04 02:52 | -7.83275 | 70.84115 | 38067 ft | 499 kts | 253° |
| 2026-05-04 02:53 | -7.85239 | 70.77399 | 38085 ft | 499 kts | 254° |
| 2026-05-04 02:53 | -7.87174 | 70.70674 | 38079 ft | 499 kts | 254° |
| 2026-05-04 02:54 | -7.89093 | 70.63944 | 38091 ft | 499 kts | 255° |
| 2026-05-04 02:54 | -7.91022 | 70.57230 | 38143 ft | 498 kts | 254° |
| 2026-05-04 02:55 | -7.93913 | 70.47168 | 38132 ft | 498 kts | 254° |
| 2026-05-04 02:56 | -7.95822 | 70.40449 | 38129 ft | 498 kts | 254° |
| 2026-05-04 02:56 | -7.97711 | 70.33732 | 38138 ft | 498 kts | 255° |
| 2026-05-04 02:57 | -7.99583 | 70.27009 | 38133 ft | 498 kts | 255° |
| 2026-05-04 02:57 | -8.01437 | 70.20279 | 38115 ft | 498 kts | 255° |
| 2026-05-04 02:58 | -8.03251 | 70.13582 | 38112 ft | 498 kts | 255° |
| 2026-05-04 02:58 | -8.05041 | 70.06836 | 38116 ft | 498 kts | 255° |
| 2026-05-04 02:59 | -8.06805 | 70.00077 | 38115 ft | 498 kts | 255° |
| 2026-05-04 02:59 | -8.08547 | 69.93317 | 38105 ft | 498 kts | 256° |
| 2026-05-04 03:00 | -8.10271 | 69.86546 | 38106 ft | 498 kts | 256° |
| 2026-05-04 03:00 | -8.11977 | 69.79777 | 38138 ft | 497 kts | 256° |
| 2026-05-04 03:01 | -8.13660 | 69.73006 | 38141 ft | 497 kts | 256° |
| 2026-05-04 03:01 | -8.15326 | 69.66229 | 38108 ft | 498 kts | 256° |
| 2026-05-04 03:02 | -8.16983 | 69.59437 | 38098 ft | 498 kts | 256° |
| 2026-05-04 03:02 | -8.18627 | 69.52651 | 38145 ft | 497 kts | 257° |
| 2026-05-04 03:03 | -8.20267 | 69.45892 | 38228 ft | 495 kts | 257° |
| 2026-05-04 03:03 | -8.21901 | 69.39141 | 38203 ft | 496 kts | 257° |
| 2026-05-04 03:04 | -8.23530 | 69.32369 | 38115 ft | 497 kts | 257° |
| 2026-05-04 03:04 | -8.25143 | 69.25587 | 38146 ft | 496 kts | 257° |
| 2026-05-04 03:05 | -8.26732 | 69.18814 | 38195 ft | 495 kts | 257° |
| 2026-05-04 03:05 | -8.28280 | 69.12091 | 38156 ft | 496 kts | 258° |
| 2026-05-04 03:06 | -8.29812 | 69.05296 | 38097 ft | 497 kts | 258° |
| 2026-05-04 03:06 | -8.31318 | 68.98488 | 38118 ft | 496 kts | 258° |
| 2026-05-04 03:07 | -8.32789 | 68.91695 | 38159 ft | 495 kts | 258° |
| 2026-05-04 03:07 | -8.34228 | 68.84889 | 38115 ft | 496 kts | 258° |
| 2026-05-04 03:08 | -8.35606 | 68.78068 | 38100 ft | 496 kts | 259° |
| 2026-05-04 03:08 | -8.36921 | 68.71231 | 38114 ft | 495 kts | 259° |
| 2026-05-04 03:09 | -8.38179 | 68.64395 | 38137 ft | 495 kts | 260° |
| 2026-05-04 03:09 | -8.39384 | 68.57547 | 38100 ft | 496 kts | 260° |
| 2026-05-04 03:10 | -8.40536 | 68.50733 | 38096 ft | 496 kts | 261° |
| 2026-05-04 03:10 | -8.41667 | 68.43862 | 38080 ft | 496 kts | 261° |
| 2026-05-04 03:11 | -8.42762 | 68.36982 | 38080 ft | 496 kts | 262° |
| 2026-05-04 03:11 | -8.43812 | 68.30096 | 38091 ft | 496 kts | 262° |
| 2026-05-04 03:12 | -8.44810 | 68.23212 | 38090 ft | 496 kts | 262° |
| 2026-05-04 03:12 | -8.45752 | 68.16317 | 38108 ft | 495 kts | 263° |
| 2026-05-04 03:13 | -8.46639 | 68.09415 | 38123 ft | 495 kts | 263° |
| 2026-05-04 03:13 | -8.47478 | 68.02513 | 38116 ft | 495 kts | 263° |
| 2026-05-04 03:14 | -8.48277 | 67.95600 | 38101 ft | 496 kts | 264° |
| 2026-05-04 03:14 | -8.49042 | 67.88685 | 38107 ft | 495 kts | 264° |
| 2026-05-04 03:15 | -8.49774 | 67.81771 | 38131 ft | 495 kts | 264° |
| 2026-05-04 03:15 | -8.50479 | 67.74854 | 38114 ft | 495 kts | 264° |
| 2026-05-04 03:16 | -8.51048 | 67.69096 | 38108 ft | 495 kts | 265° |
| 2026-05-04 03:16 | -8.51706 | 67.62171 | 38111 ft | 495 kts | 265° |
| 2026-05-04 03:17 | -8.52341 | 67.55242 | 38136 ft | 495 kts | 265° |
| 2026-05-04 03:17 | -8.52950 | 67.48314 | 38113 ft | 496 kts | 265° |
| 2026-05-04 03:18 | -8.53540 | 67.41371 | 38100 ft | 496 kts | 266° |
| 2026-05-04 03:18 | -8.54111 | 67.34435 | 38109 ft | 496 kts | 266° |
| 2026-05-04 03:19 | -8.54659 | 67.27541 | 38137 ft | 495 kts | 266° |
| 2026-05-04 03:19 | -8.55192 | 67.20601 | 38113 ft | 496 kts | 266° |
| 2026-05-04 03:20 | -8.55712 | 67.13617 | 38146 ft | 495 kts | 266° |
| 2026-05-04 03:20 | -8.56215 | 67.06686 | 38175 ft | 495 kts | 266° |
| 2026-05-04 03:21 | -8.56699 | 66.99749 | 38152 ft | 495 kts | 266° |
| 2026-05-04 03:21 | -8.57162 | 66.92810 | 38118 ft | 495 kts | 267° |
| 2026-05-04 03:22 | -8.57606 | 66.85868 | 38134 ft | 495 kts | 267° |
| 2026-05-04 03:22 | -8.58030 | 66.78916 | 38099 ft | 496 kts | 267° |
| 2026-05-04 03:23 | -8.58438 | 66.71957 | 38087 ft | 496 kts | 267° |
| 2026-05-04 03:23 | -8.58820 | 66.65046 | 38110 ft | 496 kts | 268° |
| 2026-05-04 03:24 | -8.59183 | 66.58096 | 38131 ft | 495 kts | 268° |
| 2026-05-04 03:24 | -8.59523 | 66.51141 | 38092 ft | 496 kts | 268° |
| 2026-05-04 03:25 | -8.59839 | 66.44180 | 38089 ft | 496 kts | 269° |
| 2026-05-04 03:25 | -8.60133 | 66.37219 | 38111 ft | 496 kts | 269° |
| 2026-05-04 03:26 | -8.60392 | 66.30259 | 38130 ft | 495 kts | 269° |
| 2026-05-04 03:26 | -8.60624 | 66.23298 | 38091 ft | 496 kts | 269° |
| 2026-05-04 03:27 | -8.60817 | 66.16318 | 38029 ft | 498 kts | 269° |
| 2026-05-04 03:27 | -8.60976 | 66.09326 | 38034 ft | 498 kts | 270° |
| 2026-05-04 03:28 | -8.61097 | 66.02344 | 38103 ft | 496 kts | 269° |
| 2026-05-04 03:28 | -8.61187 | 65.95373 | 38096 ft | 497 kts | 270° |
| 2026-05-04 03:29 | -8.61253 | 65.88382 | 38031 ft | 498 kts | 270° |
| 2026-05-04 03:29 | -8.61291 | 65.81378 | 38008 ft | 499 kts | 271° |
| 2026-05-04 03:30 | -8.61306 | 65.74422 | 38055 ft | 498 kts | 270° |
| 2026-05-04 03:30 | -8.61293 | 65.67439 | 38088 ft | 497 kts | 271° |
| 2026-05-04 03:31 | -8.61266 | 65.60443 | 38049 ft | 498 kts | 271° |
| 2026-05-04 03:31 | -8.61227 | 65.53451 | 38105 ft | 497 kts | 271° |
| 2026-05-04 03:32 | -8.61194 | 65.46481 | 38175 ft | 496 kts | 271° |
| 2026-05-04 03:32 | -8.61141 | 65.39513 | 38137 ft | 497 kts | 272° |
| 2026-05-04 03:33 | -8.61067 | 65.32526 | 38080 ft | 497 kts | 271° |
| 2026-05-04 03:33 | -8.60964 | 65.25550 | 38151 ft | 496 kts | 272° |
| 2026-05-04 03:34 | -8.60851 | 65.18595 | 38219 ft | 494 kts | 272° |
| 2026-05-04 03:34 | -8.60714 | 65.11647 | 38162 ft | 496 kts | 272° |
| 2026-05-04 03:35 | -8.60546 | 65.04673 | 38108 ft | 496 kts | 272° |
| 2026-05-04 03:35 | -8.60338 | 64.97708 | 38156 ft | 495 kts | 272° |
| 2026-05-04 03:36 | -8.60097 | 64.90754 | 38136 ft | 496 kts | 273° |
| 2026-05-04 03:36 | -8.59821 | 64.83772 | 38054 ft | 498 kts | 274° |
| 2026-05-04 03:37 | -8.59516 | 64.76791 | 38077 ft | 497 kts | 274° |
| 2026-05-04 03:37 | -8.59181 | 64.69825 | 38151 ft | 496 kts | 274° |
| 2026-05-04 03:38 | -8.58826 | 64.62868 | 38121 ft | 497 kts | 274° |
| 2026-05-04 03:38 | -8.58447 | 64.55893 | 38074 ft | 497 kts | 275° |
| 2026-05-04 03:39 | -8.58048 | 64.48921 | 38104 ft | 497 kts | 275° |
| 2026-05-04 03:39 | -8.57616 | 64.41963 | 38145 ft | 496 kts | 275° |
| 2026-05-04 03:40 | -8.57165 | 64.35007 | 38104 ft | 497 kts | 275° |
| 2026-05-04 03:40 | -8.56696 | 64.28029 | 38033 ft | 499 kts | 275° |
| 2026-05-04 03:41 | -8.56235 | 64.21033 | 38020 ft | 499 kts | 275° |
| 2026-05-04 03:41 | -8.55762 | 64.14050 | 38116 ft | 497 kts | 276° |
| 2026-05-04 03:42 | -8.55276 | 64.07089 | 38121 ft | 497 kts | 275° |
| 2026-05-04 03:42 | -8.54752 | 64.00117 | 38075 ft | 498 kts | 276° |
| 2026-05-04 03:43 | -8.54212 | 63.93143 | 38085 ft | 498 kts | 276° |
| 2026-05-04 03:43 | -8.53642 | 63.86232 | 38139 ft | 497 kts | 276° |
| 2026-05-04 03:44 | -8.53050 | 63.79275 | 38114 ft | 497 kts | 277° |
| 2026-05-04 03:44 | -8.52419 | 63.72269 | 38079 ft | 498 kts | 277° |
| 2026-05-04 03:45 | -8.51757 | 63.65358 | 38105 ft | 497 kts | 277° |
| 2026-05-04 03:45 | -8.51045 | 63.58417 | 38126 ft | 497 kts | 278° |
| 2026-05-04 03:46 | -8.50286 | 63.51484 | 38115 ft | 497 kts | 278° |
| 2026-05-04 03:46 | -8.49491 | 63.44545 | 38092 ft | 497 kts | 278° |
| 2026-05-04 03:47 | -8.48658 | 63.37612 | 38110 ft | 497 kts | 278° |
| 2026-05-04 03:47 | -8.47817 | 63.30683 | 38108 ft | 497 kts | 278° |
| 2026-05-04 03:48 | -8.46948 | 63.23761 | 38102 ft | 497 kts | 279° |
| 2026-05-04 03:48 | -8.46068 | 63.16832 | 38105 ft | 497 kts | 278° |
| 2026-05-04 03:49 | -8.45160 | 63.09912 | 38125 ft | 496 kts | 279° |
| 2026-05-04 03:49 | -8.44203 | 63.03020 | 38181 ft | 495 kts | 279° |
| 2026-05-04 03:50 | -8.43202 | 62.96142 | 38164 ft | 495 kts | 279° |
| 2026-05-04 03:50 | -8.42149 | 62.89311 | 38115 ft | 496 kts | 281° |
| 2026-05-04 03:51 | -8.41050 | 62.82434 | 38127 ft | 496 kts | 281° |
| 2026-05-04 03:51 | -8.39899 | 62.75567 | 38110 ft | 496 kts | 281° |
| 2026-05-04 03:52 | -8.38695 | 62.68697 | 38055 ft | 497 kts | 281° |
| 2026-05-04 03:52 | -8.37454 | 62.61835 | 38074 ft | 497 kts | 281° |
| 2026-05-04 03:53 | -8.36166 | 62.54996 | 38141 ft | 495 kts | 282° |
| 2026-05-04 03:53 | -8.34838 | 62.48162 | 38070 ft | 497 kts | 282° |
| 2026-05-04 03:54 | -8.33448 | 62.41295 | 37921 ft | 500 kts | 282° |
| 2026-05-04 03:54 | -8.32000 | 62.34440 | 38021 ft | 498 kts | 283° |
| 2026-05-04 03:55 | -8.30533 | 62.27619 | 38107 ft | 496 kts | 283° |
| 2026-05-04 03:55 | -8.29036 | 62.20805 | 38040 ft | 498 kts | 283° |
| 2026-05-04 03:56 | -8.27507 | 62.13994 | 38070 ft | 497 kts | 284° |
| 2026-05-04 03:56 | -8.25975 | 62.07205 | 38137 ft | 495 kts | 284° |
| 2026-05-04 03:57 | -8.24421 | 62.00426 | 38084 ft | 496 kts | 284° |
| 2026-05-04 03:57 | -8.22834 | 61.93636 | 38043 ft | 497 kts | 284° |
| 2026-05-04 03:58 | -8.20437 | 61.83481 | 38180 ft | 494 kts | 284° |
| 2026-05-04 03:58 | -8.18816 | 61.76748 | 38175 ft | 494 kts | 285° |
| 2026-05-04 03:59 | -8.17173 | 61.70002 | 38062 ft | 496 kts | 285° |
| 2026-05-04 03:59 | -8.15528 | 61.63294 | 38068 ft | 495 kts | 285° |
| 2026-05-04 04:00 | -8.13856 | 61.56560 | 38138 ft | 494 kts | 285° |
| 2026-05-04 04:00 | -8.12169 | 61.49843 | 38122 ft | 494 kts | 285° |
| 2026-05-04 04:01 | -8.10477 | 61.43116 | 38070 ft | 495 kts | 285° |
| 2026-05-04 04:01 | -8.08763 | 61.36381 | 38066 ft | 495 kts | 285° |
| 2026-05-04 04:02 | -8.07032 | 61.29668 | 38112 ft | 494 kts | 286° |
| 2026-05-04 04:02 | -8.05294 | 61.22973 | 38140 ft | 493 kts | 285° |
| 2026-05-04 04:03 | -8.03538 | 61.16280 | 38095 ft | 494 kts | 285° |
| 2026-05-04 04:03 | -8.01754 | 61.09580 | 38057 ft | 495 kts | 286° |
| 2026-05-04 04:04 | -7.99959 | 61.02888 | 38083 ft | 494 kts | 286° |
| 2026-05-04 04:04 | -7.98150 | 60.96191 | 38023 ft | 496 kts | 286° |
| 2026-05-04 04:05 | -7.96610 | 60.90566 | 37960 ft | 497 kts | 287° |
| 2026-05-04 04:05 | -7.94761 | 60.83902 | 37986 ft | 496 kts | 287° |
| 2026-05-04 04:06 | -7.92866 | 60.77201 | 37970 ft | 497 kts | 287° |
| 2026-05-04 04:06 | -7.90925 | 60.70501 | 37918 ft | 499 kts | 287° |
| 2026-05-04 04:07 | -7.88932 | 60.63792 | 37872 ft | 500 kts | 287° |
| 2026-05-04 04:07 | -7.86905 | 60.57089 | 37917 ft | 499 kts | 288° |
| 2026-05-04 04:08 | -7.84854 | 60.50405 | 37975 ft | 499 kts | 288° |
| 2026-05-04 04:08 | -7.82774 | 60.43728 | 37956 ft | 499 kts | 288° |
| 2026-05-04 04:09 | -7.80661 | 60.37041 | 37887 ft | 501 kts | 288° |
| 2026-05-04 04:09 | -7.78525 | 60.30356 | 37910 ft | 501 kts | 288° |
| 2026-05-04 04:10 | -7.76373 | 60.23685 | 37987 ft | 499 kts | 289° |
| 2026-05-04 04:10 | -7.74201 | 60.17034 | 37981 ft | 500 kts | 289° |
| 2026-05-04 04:11 | -7.71992 | 60.10371 | 37902 ft | 502 kts | 289° |
| 2026-05-04 04:11 | -7.69755 | 60.03697 | 37888 ft | 503 kts | 289° |
| 2026-05-04 04:12 | -7.67501 | 59.97036 | 37977 ft | 501 kts | 289° |
| 2026-05-04 04:12 | -7.65252 | 59.90449 | 38025 ft | 500 kts | 289° |
| 2026-05-04 04:13 | -7.62948 | 59.83770 | 37958 ft | 502 kts | 289° |
| 2026-05-04 04:13 | -7.60645 | 59.77159 | 37904 ft | 504 kts | 290° |
| 2026-05-04 04:14 | -7.58317 | 59.70511 | 37973 ft | 502 kts | 290° |
| 2026-05-04 04:14 | -7.55987 | 59.63889 | 38047 ft | 501 kts | 290° |
| 2026-05-04 04:15 | -7.53644 | 59.57274 | 37998 ft | 502 kts | 290° |
| 2026-05-04 04:15 | -7.51279 | 59.50619 | 37883 ft | 505 kts | 290° |
| 2026-05-04 04:16 | -7.48906 | 59.43957 | 37914 ft | 504 kts | 290° |
| 2026-05-04 04:16 | -7.46544 | 59.37322 | 38026 ft | 502 kts | 290° |
| 2026-05-04 04:17 | -7.44186 | 59.30690 | 37991 ft | 504 kts | 290° |
| 2026-05-04 04:17 | -7.41833 | 59.24018 | 37874 ft | 507 kts | 290° |
| 2026-05-04 04:18 | -7.39502 | 59.17319 | 37901 ft | 506 kts | 290° |
| 2026-05-04 04:18 | -7.37206 | 59.10637 | 38008 ft | 504 kts | 289° |
| 2026-05-04 04:19 | -7.34936 | 59.03959 | 37977 ft | 505 kts | 289° |
| 2026-05-04 04:19 | -7.32680 | 58.97234 | 37852 ft | 508 kts | 289° |
| 2026-05-04 04:20 | -7.30443 | 58.90470 | 37835 ft | 509 kts | 289° |
| 2026-05-04 04:20 | -7.28231 | 58.83719 | 37973 ft | 506 kts | 289° |
| 2026-05-04 04:21 | -7.26039 | 58.76983 | 37974 ft | 507 kts | 289° |
| 2026-05-04 04:21 | -7.23868 | 58.70264 | 37888 ft | 509 kts | 288° |
| 2026-05-04 04:22 | -7.21693 | 58.63480 | 37912 ft | 508 kts | 288° |
| 2026-05-04 04:22 | -7.19543 | 58.56715 | 37994 ft | 507 kts | 288° |
| 2026-05-04 04:23 | -7.17408 | 58.49942 | 37951 ft | 508 kts | 288° |
| 2026-05-04 04:23 | -7.15289 | 58.43151 | 37932 ft | 508 kts | 288° |
| 2026-05-04 04:24 | -7.13202 | 58.36361 | 38026 ft | 507 kts | 288° |
| 2026-05-04 04:24 | -7.11139 | 58.29583 | 38033 ft | 507 kts | 288° |
| 2026-05-04 04:25 | -7.09092 | 58.22788 | 38005 ft | 507 kts | 288° |
| 2026-05-04 04:25 | -7.07061 | 58.15991 | 38040 ft | 507 kts | 287° |
| 2026-05-04 04:26 | -7.05036 | 58.09205 | 38073 ft | 506 kts | 287° |
| 2026-05-04 04:26 | -7.03011 | 58.02416 | 38043 ft | 507 kts | 287° |
| 2026-05-04 04:27 | -7.00983 | 57.95612 | 38020 ft | 507 kts | 287° |
| 2026-05-04 04:27 | -6.98955 | 57.88817 | 38049 ft | 507 kts | 287° |
| 2026-05-04 04:28 | -6.96920 | 57.82033 | 38093 ft | 506 kts | 287° |
| 2026-05-04 04:28 | -6.94882 | 57.75257 | 38076 ft | 506 kts | 287° |
| 2026-05-04 04:29 | -6.92842 | 57.68467 | 38043 ft | 507 kts | 287° |
| 2026-05-04 04:29 | -6.90810 | 57.61679 | 38074 ft | 506 kts | 287° |
| 2026-05-04 04:30 | -6.88800 | 57.54908 | 38156 ft | 504 kts | 287° |
| 2026-05-04 04:30 | -6.86803 | 57.48141 | 38115 ft | 505 kts | 287° |
| 2026-05-04 04:31 | -6.84823 | 57.41397 | 38063 ft | 506 kts | 287° |
| 2026-05-04 04:31 | -6.82843 | 57.34603 | 38095 ft | 505 kts | 287° |
| 2026-05-04 04:32 | -6.80891 | 57.27833 | 38221 ft | 502 kts | 287° |
| 2026-05-04 04:32 | -6.78954 | 57.21076 | 38190 ft | 503 kts | 287° |
| 2026-05-04 04:33 | -6.77019 | 57.14290 | 38082 ft | 505 kts | 287° |
| 2026-05-04 04:33 | -6.75093 | 57.07492 | 38097 ft | 505 kts | 287° |
| 2026-05-04 04:34 | -6.73186 | 57.00693 | 38105 ft | 505 kts | 287° |
| 2026-05-04 04:34 | -6.71296 | 56.93896 | 38098 ft | 505 kts | 286° |
| 2026-05-04 04:35 | -6.69416 | 56.87085 | 38086 ft | 505 kts | 286° |
| 2026-05-04 04:35 | -6.67538 | 56.80268 | 38084 ft | 506 kts | 286° |
| 2026-05-04 04:36 | -6.65635 | 56.73452 | 38031 ft | 507 kts | 286° |
| 2026-05-04 04:36 | -6.63709 | 56.66625 | 38055 ft | 507 kts | 287° |
| 2026-05-04 04:37 | -6.59831 | 56.53020 | 38082 ft | 507 kts | 287° |
| 2026-05-04 04:38 | -6.57873 | 56.46205 | 38030 ft | 508 kts | 287° |
| 2026-05-04 04:38 | -6.55908 | 56.39386 | 38066 ft | 507 kts | 287° |
| 2026-05-04 04:39 | -6.53958 | 56.32627 | 38106 ft | 506 kts | 287° |
| 2026-05-04 04:39 | -6.51991 | 56.25822 | 38082 ft | 507 kts | 287° |
| 2026-05-04 04:40 | -6.50021 | 56.19016 | 38069 ft | 507 kts | 287° |
| 2026-05-04 04:40 | -6.48049 | 56.12210 | 38084 ft | 507 kts | 287° |
| 2026-05-04 04:41 | -6.46079 | 56.05412 | 38092 ft | 507 kts | 287° |
| 2026-05-04 04:41 | -6.44104 | 55.98606 | 38082 ft | 507 kts | 287° |
| 2026-05-04 04:42 | -6.42131 | 55.91806 | 38086 ft | 507 kts | 287° |
| 2026-05-04 04:42 | -6.40155 | 55.85000 | 38098 ft | 507 kts | 287° |
| 2026-05-04 04:43 | -6.38181 | 55.78203 | 38114 ft | 507 kts | 287° |
| 2026-05-04 04:43 | -6.36202 | 55.71397 | 38090 ft | 507 kts | 287° |
| 2026-05-04 04:44 | -6.34222 | 55.64598 | 38098 ft | 507 kts | 287° |
| 2026-05-04 04:44 | -6.32238 | 55.57796 | 38122 ft | 507 kts | 287° |
| 2026-05-04 04:45 | -6.30254 | 55.51002 | 38118 ft | 507 kts | 287° |
| 2026-05-04 04:47 | -6.23288 | 55.27227 | 38067 ft | 508 kts | 287° |
| 2026-05-04 04:47 | -6.21319 | 55.20390 | 37988 ft | 510 kts | 286° |
| 2026-05-04 04:48 | -6.19369 | 55.13531 | 37993 ft | 510 kts | 286° |
| 2026-05-04 04:49 | -6.14600 | 54.96407 | 38041 ft | 510 kts | 285° |
| 2026-05-04 04:49 | -6.12717 | 54.89520 | 37976 ft | 511 kts | 285° |
| 2026-05-04 04:50 | -6.10852 | 54.82630 | 38033 ft | 510 kts | 285° |
| 2026-05-04 04:50 | -6.09010 | 54.75754 | 38086 ft | 509 kts | 285° |
| 2026-05-04 04:51 | -6.07183 | 54.68869 | 38026 ft | 511 kts | 285° |
| 2026-05-04 04:51 | -6.05362 | 54.61954 | 37977 ft | 512 kts | 285° |
| 2026-05-04 04:52 | -6.03559 | 54.55041 | 38052 ft | 511 kts | 285° |
| 2026-05-04 04:52 | -6.01774 | 54.48142 | 38086 ft | 510 kts | 284° |
| 2026-05-04 04:53 | -5.99997 | 54.41234 | 38021 ft | 512 kts | 284° |
| 2026-05-04 04:53 | -5.98238 | 54.34347 | 37996 ft | 512 kts | 284° |
| 2026-05-04 04:54 | -5.96482 | 54.27419 | 38062 ft | 511 kts | 284° |
| 2026-05-04 04:54 | -5.94739 | 54.20502 | 38084 ft | 511 kts | 284° |
| 2026-05-04 04:55 | -5.93003 | 54.13577 | 38041 ft | 512 kts | 284° |
| 2026-05-04 04:55 | -5.91554 | 54.07767 | 38027 ft | 512 kts | 284° |
| 2026-05-04 04:56 | -5.89846 | 54.00877 | 38059 ft | 511 kts | 284° |
| 2026-05-04 04:56 | -5.88139 | 53.93946 | 38083 ft | 511 kts | 284° |
| 2026-05-04 04:57 | -5.86445 | 53.87011 | 38064 ft | 512 kts | 284° |
| 2026-05-04 04:57 | -5.84759 | 53.80064 | 38047 ft | 512 kts | 284° |
| 2026-05-04 04:58 | -5.83084 | 53.73120 | 38061 ft | 512 kts | 284° |
| 2026-05-04 04:58 | -5.81418 | 53.66169 | 38035 ft | 513 kts | 283° |
| 2026-05-04 04:59 | -5.79758 | 53.59203 | 38009 ft | 513 kts | 283° |
| 2026-05-04 04:59 | -5.78105 | 53.52234 | 38056 ft | 512 kts | 283° |
| 2026-05-04 05:00 | -5.76462 | 53.45281 | 38072 ft | 512 kts | 283° |
| 2026-05-04 05:01 | -5.74003 | 53.34831 | 38037 ft | 513 kts | 283° |
| 2026-05-04 05:01 | -5.72374 | 53.27858 | 38058 ft | 513 kts | 283° |
| 2026-05-04 05:02 | -5.70761 | 53.20886 | 38051 ft | 513 kts | 283° |
| 2026-05-04 05:02 | -5.69165 | 53.13892 | 37992 ft | 515 kts | 283° |
| 2026-05-04 05:03 | -5.67589 | 53.06935 | 38020 ft | 514 kts | 283° |
| 2026-05-04 05:04 | -5.64450 | 52.92953 | 38057 ft | 514 kts | 283° |
| 2026-05-04 05:04 | -5.62895 | 52.85948 | 38031 ft | 514 kts | 283° |
| 2026-05-04 05:06 | -5.56654 | 52.57930 | 38023 ft | 515 kts | 283° |
| 2026-05-04 05:07 | -5.55074 | 52.50928 | 38053 ft | 514 kts | 283° |
| 2026-05-04 05:07 | -5.53484 | 52.43927 | 38025 ft | 515 kts | 283° |
| 2026-05-04 05:09 | -5.46085 | 52.12421 | 38007 ft | 516 kts | 284° |
| 2026-05-04 05:10 | -5.44367 | 52.05434 | 38047 ft | 515 kts | 284° |
| 2026-05-04 05:10 | -5.42616 | 51.98464 | 38062 ft | 515 kts | 285° |
| 2026-05-04 05:11 | -5.40827 | 51.91495 | 38032 ft | 516 kts | 285° |
| 2026-05-04 05:11 | -5.39000 | 51.84532 | 38042 ft | 516 kts | 285° |
| 2026-05-04 05:12 | -5.37141 | 51.77588 | 38101 ft | 514 kts | 286° |
| 2026-05-04 05:12 | -5.35265 | 51.70712 | 38138 ft | 514 kts | 286° |
| 2026-05-04 05:13 | -5.33344 | 51.63799 | 38086 ft | 515 kts | 287° |
| 2026-05-04 05:13 | -5.31386 | 51.56884 | 38075 ft | 515 kts | 287° |
| 2026-05-04 05:14 | -5.29392 | 51.49984 | 38104 ft | 514 kts | 287° |
| 2026-05-04 05:14 | -5.27366 | 51.43101 | 38098 ft | 514 kts | 287° |
| 2026-05-04 05:15 | -5.25305 | 51.36226 | 38080 ft | 515 kts | 288° |
| 2026-05-04 05:15 | -5.23209 | 51.29351 | 38069 ft | 515 kts | 288° |
| 2026-05-04 05:16 | -5.21088 | 51.22483 | 38057 ft | 516 kts | 288° |
| 2026-05-04 05:16 | -5.18938 | 51.15623 | 38072 ft | 515 kts | 288° |
| 2026-05-04 05:17 | -5.16757 | 51.08774 | 38082 ft | 515 kts | 289° |
| 2026-05-04 05:17 | -5.14542 | 51.01938 | 38076 ft | 515 kts | 289° |
| 2026-05-04 05:18 | -5.12291 | 50.95111 | 38072 ft | 515 kts | 289° |
| 2026-05-04 05:18 | -5.10006 | 50.88299 | 38084 ft | 515 kts | 290° |
| 2026-05-04 05:19 | -5.07692 | 50.81498 | 38081 ft | 515 kts | 290° |
| 2026-05-04 05:19 | -5.05347 | 50.74700 | 38062 ft | 516 kts | 290° |
| 2026-05-04 05:20 | -5.02969 | 50.67917 | 38076 ft | 516 kts | 291° |
| 2026-05-04 05:20 | -5.00559 | 50.61146 | 38086 ft | 516 kts | 291° |
| 2026-05-04 05:21 | -4.98185 | 50.54340 | 37985 ft | 519 kts | 291° |
| 2026-05-04 05:21 | -4.95883 | 50.47519 | 37932 ft | 520 kts | 290° |
| 2026-05-04 05:22 | -4.93593 | 50.40662 | 38048 ft | 518 kts | 290° |
| 2026-05-04 05:22 | -4.91309 | 50.33819 | 38062 ft | 518 kts | 290° |
| 2026-05-04 05:23 | -4.88993 | 50.26962 | 37974 ft | 520 kts | 291° |
| 2026-05-04 05:23 | -4.86627 | 50.20113 | 37993 ft | 519 kts | 291° |
| 2026-05-04 05:24 | -4.84208 | 50.13300 | 38065 ft | 518 kts | 292° |
| 2026-05-04 05:24 | -4.81725 | 50.06513 | 38040 ft | 519 kts | 292° |
| 2026-05-04 05:25 | -4.79158 | 49.99740 | 38003 ft | 520 kts | 293° |
| 2026-05-04 05:25 | -4.76509 | 49.93008 | 38045 ft | 519 kts | 294° |
| 2026-05-04 05:26 | -4.73775 | 49.86322 | 38086 ft | 518 kts | 295° |
| 2026-05-04 05:26 | -4.70947 | 49.79676 | 38060 ft | 518 kts | 296° |
| 2026-05-04 05:28 | -4.58656 | 49.53588 | 38096 ft | 517 kts | 300° |
| 2026-05-04 05:29 | -4.55327 | 49.47204 | 38091 ft | 516 kts | 300° |
| 2026-05-04 05:29 | -4.51894 | 49.40890 | 38102 ft | 516 kts | 301° |
| 2026-05-04 05:31 | -4.37192 | 49.16306 | 38104 ft | 515 kts | 305° |
| 2026-05-04 05:32 | -4.33270 | 49.10311 | 38107 ft | 514 kts | 306° |
| 2026-05-04 05:33 | -4.27211 | 49.01436 | 38084 ft | 515 kts | 307° |
| 2026-05-04 05:33 | -4.23050 | 48.95598 | 38071 ft | 515 kts | 308° |
| 2026-05-04 05:34 | -4.18811 | 48.89829 | 38101 ft | 514 kts | 309° |
| 2026-05-04 05:34 | -4.14504 | 48.84128 | 38108 ft | 513 kts | 310° |
| 2026-05-04 05:35 | -4.10118 | 48.78479 | 38090 ft | 514 kts | 310° |
| 2026-05-04 05:35 | -4.05661 | 48.72885 | 38093 ft | 513 kts | 311° |
| 2026-05-04 05:36 | -4.01143 | 48.67355 | 38119 ft | 513 kts | 312° |
| 2026-05-04 05:36 | -3.96556 | 48.61884 | 38099 ft | 513 kts | 313° |
| 2026-05-04 05:37 | -3.91888 | 48.56472 | 38058 ft | 514 kts | 313° |
| 2026-05-04 05:37 | -3.87149 | 48.51120 | 38084 ft | 513 kts | 314° |
| 2026-05-04 05:38 | -3.79934 | 48.43224 | 38111 ft | 512 kts | 315° |
| 2026-05-04 05:38 | -3.75033 | 48.38035 | 38055 ft | 514 kts | 316° |
| 2026-05-04 05:39 | -3.67544 | 48.30361 | 38081 ft | 513 kts | 317° |
| 2026-05-04 05:40 | -3.59946 | 48.22837 | 38108 ft | 512 kts | 318° |
| 2026-05-04 05:40 | -3.54805 | 48.17882 | 38043 ft | 514 kts | 319° |
| 2026-05-04 05:41 | -3.49604 | 48.12972 | 38014 ft | 514 kts | 319° |
| 2026-05-04 05:41 | -3.44395 | 48.08150 | 38094 ft | 512 kts | 320° |
| 2026-05-04 05:42 | -3.39085 | 48.03324 | 38124 ft | 512 kts | 320° |
| 2026-05-04 05:42 | -3.34670 | 47.99373 | 38091 ft | 513 kts | 321° |
| 2026-05-04 05:43 | -3.28438 | 47.93886 | 38067 ft | 513 kts | 321° |
| 2026-05-04 05:45 | -3.07585 | 47.76223 | 38099 ft | 513 kts | 323° |
| 2026-05-04 05:47 | -2.85291 | 47.58465 | 38121 ft | 512 kts | 324° |
| 2026-05-04 05:47 | -2.79637 | 47.54127 | 38168 ft | 512 kts | 325° |
| 2026-05-04 05:48 | -2.73959 | 47.49844 | 38172 ft | 511 kts | 326° |
| 2026-05-04 05:48 | -2.68235 | 47.45604 | 38135 ft | 512 kts | 326° |
| 2026-05-04 05:49 | -2.62479 | 47.41416 | 38160 ft | 512 kts | 326° |
| 2026-05-04 05:49 | -2.56690 | 47.37276 | 38172 ft | 511 kts | 327° |
| 2026-05-04 05:51 | -2.33206 | 47.21237 | 38174 ft | 511 kts | 329° |
| 2026-05-04 05:52 | -2.27254 | 47.17357 | 38173 ft | 511 kts | 329° |
| 2026-05-04 05:52 | -2.21267 | 47.13523 | 38182 ft | 510 kts | 330° |
| 2026-05-04 05:54 | -1.97080 | 46.98845 | 38194 ft | 509 kts | 332° |
| 2026-05-04 05:55 | -1.90943 | 46.95328 | 38232 ft | 508 kts | 333° |
| 2026-05-04 05:55 | -1.84749 | 46.91920 | 38221 ft | 508 kts | 334° |
| 2026-05-04 05:56 | -1.78501 | 46.88610 | 38179 ft | 509 kts | 334° |
| 2026-05-04 05:56 | -1.72210 | 46.85385 | 38193 ft | 508 kts | 335° |
| 2026-05-04 05:57 | -1.65892 | 46.82234 | 38231 ft | 507 kts | 336° |
| 2026-05-04 05:57 | -1.59558 | 46.79159 | 38273 ft | 506 kts | 336° |
| 2026-05-04 05:58 | -1.53196 | 46.76154 | 38256 ft | 506 kts | 337° |
| 2026-05-04 05:58 | -1.46798 | 46.73210 | 38217 ft | 506 kts | 338° |
| 2026-05-04 05:59 | -1.40375 | 46.70335 | 38227 ft | 506 kts | 338° |
| 2026-05-04 05:59 | -1.33929 | 46.67543 | 38298 ft | 504 kts | 339° |
| 2026-05-04 06:00 | -1.27512 | 46.64862 | 38323 ft | 503 kts | 340° |
| 2026-05-04 06:00 | -1.21023 | 46.62244 | 38276 ft | 504 kts | 340° |
| 2026-05-04 06:01 | -1.14491 | 46.59695 | 38220 ft | 504 kts | 341° |
| 2026-05-04 06:03 | -0.88142 | 46.50203 | 38215 ft | 503 kts | 343° |
| 2026-05-04 06:05 | -0.58032 | 46.41105 | 38225 ft | 502 kts | 347° |
| 2026-05-04 06:06 | -0.51278 | 46.39335 | 38216 ft | 502 kts | 347° |
| 2026-05-04 06:06 | -0.44505 | 46.37642 | 38228 ft | 501 kts | 348° |
| 2026-05-04 06:07 | -0.37719 | 46.36032 | 38223 ft | 501 kts | 349° |
| 2026-05-04 06:07 | -0.30907 | 46.34504 | 38172 ft | 502 kts | 349° |
| 2026-05-04 06:08 | -0.24073 | 46.33053 | 38173 ft | 502 kts | 350° |
| 2026-05-04 06:08 | -0.17234 | 46.31653 | 38204 ft | 501 kts | 351° |
| 2026-05-04 06:09 | -0.10393 | 46.30314 | 38203 ft | 501 kts | 351° |
| 2026-05-04 06:11 | 0.17106 | 46.25781 | 38201 ft | 500 kts | 355° |
| 2026-05-04 06:13 | 0.44747 | 46.22963 | 38202 ft | 498 kts | 359° |
| 2026-05-04 06:14 | 0.68892 | 46.22220 | 38268 ft | 495 kts | 3° |
| 2026-05-04 06:15 | 0.75781 | 46.22308 | 38215 ft | 495 kts | 4° |
| 2026-05-04 06:15 | 0.82674 | 46.22524 | 38193 ft | 495 kts | 5° |
| 2026-05-04 06:16 | 0.89537 | 46.22893 | 38271 ft | 493 kts | 6° |
| 2026-05-04 06:16 | 0.96355 | 46.23415 | 38308 ft | 491 kts | 8° |
| 2026-05-04 06:17 | 1.03164 | 46.24071 | 38233 ft | 492 kts | 8° |
| 2026-05-04 06:17 | 1.09974 | 46.24846 | 38184 ft | 492 kts | 9° |
| 2026-05-04 06:18 | 1.16753 | 46.25736 | 38254 ft | 490 kts | 10° |
| 2026-05-04 06:20 | 1.43613 | 46.30148 | 38215 ft | 489 kts | 12° |
| 2026-05-04 06:21 | 1.60308 | 46.33436 | 38165 ft | 490 kts | 14° |
| 2026-05-04 06:22 | 1.66972 | 46.34842 | 38169 ft | 489 kts | 14° |
| 2026-05-04 06:25 | 2.13158 | 46.45698 | 38268 ft | 485 kts | 15° |
| 2026-05-04 06:26 | 2.19709 | 46.47366 | 38179 ft | 486 kts | 15° |
| 2026-05-04 06:26 | 2.26267 | 46.49045 | 38139 ft | 487 kts | 16° |
| 2026-05-04 06:27 | 2.42742 | 46.53323 | 38113 ft | 488 kts | 16° |
| 2026-05-04 06:28 | 2.49294 | 46.55063 | 38164 ft | 487 kts | 16° |
| 2026-05-04 06:28 | 2.55861 | 46.56838 | 38046 ft | 490 kts | 17° |
| 2026-05-04 06:29 | 2.62443 | 46.58654 | 38022 ft | 490 kts | 17° |
| 2026-05-04 06:29 | 2.68949 | 46.60498 | 38131 ft | 488 kts | 17° |
| 2026-05-04 06:30 | 2.75466 | 46.62400 | 38144 ft | 488 kts | 18° |
| 2026-05-04 06:30 | 2.81990 | 46.64347 | 38076 ft | 490 kts | 18° |
| 2026-05-04 06:31 | 2.88502 | 46.66327 | 38106 ft | 488 kts | 18° |
| 2026-05-04 06:31 | 2.94985 | 46.68327 | 38184 ft | 487 kts | 18° |
| 2026-05-04 06:33 | 3.19807 | 46.76167 | 38157 ft | 488 kts | 19° |
| 2026-05-04 06:34 | 3.26256 | 46.78276 | 38157 ft | 488 kts | 19° |
| 2026-05-04 06:34 | 3.32714 | 46.80398 | 38103 ft | 489 kts | 20° |
| 2026-05-04 06:36 | 3.58492 | 46.88957 | 38103 ft | 488 kts | 20° |
| 2026-05-04 06:37 | 3.64920 | 46.91147 | 38148 ft | 487 kts | 20° |
| 2026-05-04 06:37 | 3.71328 | 46.93363 | 38158 ft | 487 kts | 20° |
| 2026-05-04 06:38 | 3.77731 | 46.95608 | 38121 ft | 488 kts | 21° |
| 2026-05-04 06:40 | 4.03116 | 47.05179 | 38096 ft | 489 kts | 22° |
| 2026-05-04 06:40 | 4.09458 | 47.07629 | 38115 ft | 488 kts | 22° |
| 2026-05-04 06:41 | 4.15797 | 47.10074 | 38122 ft | 488 kts | 22° |
| 2026-05-04 06:41 | 4.22147 | 47.12515 | 38091 ft | 489 kts | 22° |
| 2026-05-04 06:42 | 4.28536 | 47.14951 | 37958 ft | 493 kts | 22° |
| 2026-05-04 06:44 | 4.54069 | 47.24721 | 37934 ft | 494 kts | 23° |
| 2026-05-04 06:44 | 4.60488 | 47.27231 | 37910 ft | 495 kts | 23° |
| 2026-05-04 06:45 | 4.66877 | 47.29727 | 38073 ft | 491 kts | 23° |
| 2026-05-04 06:45 | 4.73252 | 47.32202 | 38086 ft | 492 kts | 23° |
| 2026-05-04 06:46 | 4.79653 | 47.34683 | 37954 ft | 495 kts | 23° |
| 2026-05-04 06:46 | 4.86071 | 47.37189 | 37959 ft | 494 kts | 23° |
| 2026-05-04 06:48 | 5.11421 | 47.47672 | 38039 ft | 493 kts | 25° |
| 2026-05-04 06:50 | 5.36207 | 47.59231 | 38068 ft | 491 kts | 28° |
| 2026-05-04 06:51 | 5.42293 | 47.62289 | 38254 ft | 487 kts | 29° |
| 2026-05-04 06:51 | 5.48295 | 47.65418 | 38268 ft | 486 kts | 30° |
| 2026-05-04 06:52 | 5.54260 | 47.68662 | 38086 ft | 489 kts | 31° |
| 2026-05-04 06:52 | 5.60187 | 47.72033 | 38068 ft | 489 kts | 32° |
| 2026-05-04 06:53 | 5.66010 | 47.75506 | 38208 ft | 485 kts | 32° |
| 2026-05-04 06:53 | 5.68864 | 47.77291 | 38330 ft | 482 kts | 33° |
| 2026-05-04 06:53 | 5.71675 | 47.79107 | 38430 ft | 480 kts | 34° |
| 2026-05-04 06:54 | 5.77219 | 47.82842 | 38329 ft | 482 kts | 35° |
| 2026-05-04 06:54 | 5.79977 | 47.84772 | 38189 ft | 484 kts | 36° |
| 2026-05-04 06:54 | 5.82724 | 47.86740 | 38074 ft | 486 kts | 36° |
| 2026-05-04 06:55 | 5.88166 | 47.90764 | 38107 ft | 484 kts | 37° |
| 2026-05-04 06:55 | 5.90842 | 47.92799 | 38221 ft | 481 kts | 38° |
| 2026-05-04 06:55 | 5.93490 | 47.94846 | 38298 ft | 480 kts | 38° |
| 2026-05-04 06:57 | 6.14232 | 48.12003 | 38162 ft | 482 kts | 41° |
| 2026-05-04 06:58 | 6.19269 | 48.16445 | 38164 ft | 482 kts | 42° |
| 2026-05-04 06:58 | 6.24278 | 48.20949 | 38070 ft | 484 kts | 42° |
| 2026-05-04 06:59 | 6.29257 | 48.25504 | 38056 ft | 484 kts | 43° |
| 2026-05-04 06:59 | 6.34199 | 48.30092 | 38098 ft | 483 kts | 43° |
| 2026-05-04 07:01 | 6.53716 | 48.48716 | 38082 ft | 484 kts | 44° |
| 2026-05-04 07:02 | 6.58534 | 48.53443 | 38082 ft | 484 kts | 45° |
| 2026-05-04 07:02 | 6.63343 | 48.58178 | 38084 ft | 484 kts | 45° |
| 2026-05-04 07:03 | 6.68148 | 48.62922 | 38081 ft | 484 kts | 45° |
| 2026-05-04 07:03 | 6.72945 | 48.67672 | 38086 ft | 484 kts | 45° |
| 2026-05-04 07:04 | 6.77734 | 48.72445 | 38073 ft | 485 kts | 45° |
| 2026-05-04 07:04 | 6.82478 | 48.77203 | 38061 ft | 485 kts | 45° |
| 2026-05-04 07:05 | 6.87234 | 48.82009 | 38091 ft | 484 kts | 45° |
| 2026-05-04 07:05 | 6.92006 | 48.86813 | 38012 ft | 486 kts | 45° |
| 2026-05-04 07:06 | 6.99218 | 48.94037 | 37978 ft | 487 kts | 45° |
| 2026-05-04 07:07 | 7.03986 | 48.98860 | 38081 ft | 485 kts | 46° |
| 2026-05-04 07:09 | 7.22885 | 49.18357 | 38096 ft | 485 kts | 46° |
| 2026-05-04 07:09 | 7.27606 | 49.23229 | 38068 ft | 487 kts | 46° |
| 2026-05-04 07:10 | 7.32333 | 49.28118 | 38032 ft | 487 kts | 47° |
| 2026-05-04 07:12 | 7.51058 | 49.47695 | 38061 ft | 487 kts | 48° |
| 2026-05-04 07:12 | 7.55731 | 49.52632 | 38047 ft | 487 kts | 47° |
| 2026-05-04 07:13 | 7.60421 | 49.57575 | 37985 ft | 489 kts | 47° |
| 2026-05-04 07:13 | 7.65101 | 49.62553 | 37966 ft | 489 kts | 48° |
| 2026-05-04 07:14 | 7.76543 | 49.75197 | 38024 ft | 488 kts | 50° |
| 2026-05-04 07:15 | 7.81018 | 49.80366 | 37962 ft | 490 kts | 51° |
| 2026-05-04 07:15 | 7.85439 | 49.85587 | 38018 ft | 488 kts | 51° |
| 2026-05-04 07:16 | 7.87621 | 49.88195 | 38146 ft | 485 kts | 51° |
| 2026-05-04 07:16 | 7.89777 | 49.90794 | 38257 ft | 483 kts | 52° |
| 2026-05-04 07:16 | 7.94059 | 49.96024 | 38190 ft | 484 kts | 52° |
| 2026-05-04 07:17 | 7.96188 | 49.98664 | 38072 ft | 487 kts | 52° |
| 2026-05-04 07:17 | 7.98316 | 50.01329 | 38013 ft | 488 kts | 53° |
| 2026-05-04 07:17 | 8.02522 | 50.06681 | 38082 ft | 485 kts | 53° |
| 2026-05-04 07:18 | 8.06645 | 50.12043 | 38213 ft | 483 kts | 54° |
| 2026-05-04 07:18 | 8.10706 | 50.17450 | 38129 ft | 485 kts | 54° |
| 2026-05-04 07:19 | 8.14717 | 50.22927 | 38041 ft | 486 kts | 55° |
| 2026-05-04 07:19 | 8.18657 | 50.28448 | 38148 ft | 482 kts | 56° |
| 2026-05-04 07:20 | 8.20582 | 50.31211 | 38278 ft | 479 kts | 57° |
| 2026-05-04 07:20 | 8.22474 | 50.33972 | 38359 ft | 478 kts | 57° |
| 2026-05-04 07:20 | 8.25571 | 50.38592 | 38302 ft | 479 kts | 58° |
| 2026-05-04 07:22 | 8.39693 | 50.61475 | 38228 ft | 479 kts | 61° |
| 2026-05-04 07:23 | 8.43005 | 50.67329 | 38105 ft | 481 kts | 62° |
| 2026-05-04 07:23 | 8.46232 | 50.73230 | 38177 ft | 479 kts | 63° |
| 2026-05-04 07:24 | 8.49359 | 50.79145 | 38259 ft | 477 kts | 63° |
| 2026-05-04 07:24 | 8.52403 | 50.85109 | 38171 ft | 479 kts | 64° |
| 2026-05-04 07:26 | 8.63658 | 51.09380 | 38151 ft | 478 kts | 67° |
| 2026-05-04 07:27 | 8.66260 | 51.15564 | 38132 ft | 478 kts | 68° |
| 2026-05-04 07:27 | 8.68781 | 51.21771 | 38183 ft | 477 kts | 69° |
| 2026-05-04 07:28 | 8.71222 | 51.27996 | 38191 ft | 476 kts | 69° |
| 2026-05-04 07:28 | 8.73587 | 51.34261 | 38135 ft | 477 kts | 70° |
| 2026-05-04 07:29 | 8.75873 | 51.40565 | 38122 ft | 478 kts | 71° |
| 2026-05-04 07:29 | 8.78083 | 51.46886 | 38157 ft | 477 kts | 71° |
| 2026-05-04 07:30 | 8.80220 | 51.53226 | 38169 ft | 476 kts | 72° |
| 2026-05-04 07:30 | 8.82277 | 51.59604 | 38135 ft | 477 kts | 73° |
| 2026-05-04 07:31 | 8.84247 | 51.66014 | 38101 ft | 478 kts | 73° |
| 2026-05-04 07:33 | 8.91351 | 51.91888 | 38063 ft | 479 kts | 76° |
| 2026-05-04 07:33 | 8.92947 | 51.98417 | 38116 ft | 478 kts | 77° |
| 2026-05-04 07:34 | 8.94474 | 52.04942 | 38162 ft | 477 kts | 77° |
| 2026-05-04 07:34 | 8.95940 | 52.11498 | 38104 ft | 478 kts | 78° |
| 2026-05-04 07:35 | 8.97338 | 52.18038 | 38057 ft | 479 kts | 78° |
| 2026-05-04 07:35 | 8.98683 | 52.24634 | 38118 ft | 478 kts | 79° |
| 2026-05-04 07:36 | 8.99962 | 52.31227 | 38150 ft | 478 kts | 79° |
| 2026-05-04 07:38 | 9.04393 | 52.57709 | 38166 ft | 477 kts | 82° |
| 2026-05-04 07:38 | 9.05321 | 52.64365 | 38136 ft | 478 kts | 82° |
| 2026-05-04 07:39 | 9.06174 | 52.71031 | 38140 ft | 478 kts | 83° |
| 2026-05-04 07:39 | 9.06961 | 52.77698 | 38169 ft | 477 kts | 83° |
| 2026-05-04 07:40 | 9.07672 | 52.84370 | 38168 ft | 477 kts | 84° |
| 2026-05-04 07:40 | 9.08292 | 52.91061 | 38140 ft | 478 kts | 85° |
| 2026-05-04 07:41 | 9.08817 | 52.97722 | 38141 ft | 478 kts | 86° |
| 2026-05-04 07:41 | 9.09267 | 53.04423 | 38165 ft | 477 kts | 86° |
| 2026-05-04 07:42 | 9.09628 | 53.11131 | 38155 ft | 478 kts | 87° |
| 2026-05-04 07:42 | 9.09875 | 53.17859 | 38114 ft | 479 kts | 88° |
| 2026-05-04 07:43 | 9.10011 | 53.24598 | 38088 ft | 479 kts | 89° |
| 2026-05-04 07:43 | 9.10030 | 53.31329 | 38136 ft | 478 kts | 90° |
| 2026-05-04 07:44 | 9.09940 | 53.38057 | 38160 ft | 478 kts | 91° |
| 2026-05-04 07:44 | 9.09735 | 53.44782 | 38127 ft | 479 kts | 92° |
| 2026-05-04 07:45 | 9.09420 | 53.51512 | 38112 ft | 479 kts | 93° |
| 2026-05-04 07:45 | 9.08995 | 53.58230 | 38139 ft | 478 kts | 94° |
| 2026-05-04 07:46 | 9.08465 | 53.64936 | 38156 ft | 478 kts | 95° |
| 2026-05-04 07:46 | 9.07829 | 53.71633 | 38135 ft | 479 kts | 96° |
| 2026-05-04 07:47 | 9.07092 | 53.78325 | 38127 ft | 479 kts | 97° |
| 2026-05-04 07:49 | 9.03238 | 54.04908 | 38129 ft | 479 kts | 100° |
| 2026-05-04 07:49 | 9.02028 | 54.11520 | 38157 ft | 478 kts | 101° |
| 2026-05-04 07:50 | 9.00727 | 54.18116 | 38164 ft | 478 kts | 102° |
| 2026-05-04 07:50 | 8.99300 | 54.24681 | 38145 ft | 478 kts | 103° |
| 2026-05-04 07:51 | 8.97742 | 54.31223 | 38128 ft | 479 kts | 104° |
| 2026-05-04 07:51 | 8.96076 | 54.37741 | 38138 ft | 478 kts | 105° |
| 2026-05-04 07:52 | 8.94321 | 54.44226 | 38154 ft | 478 kts | 105° |
| 2026-05-04 07:52 | 8.92480 | 54.50688 | 38133 ft | 479 kts | 106° |
| 2026-05-04 07:54 | 8.84205 | 54.76287 | 38143 ft | 479 kts | 110° |
| 2026-05-04 07:55 | 8.81915 | 54.82611 | 38123 ft | 479 kts | 110° |
| 2026-05-04 07:55 | 8.79548 | 54.88908 | 38124 ft | 479 kts | 111° |
| 2026-05-04 07:56 | 8.77111 | 54.95128 | 38138 ft | 479 kts | 112° |
| 2026-05-04 07:56 | 8.74575 | 55.01353 | 38134 ft | 479 kts | 112° |
| 2026-05-04 07:57 | 8.71968 | 55.07549 | 38126 ft | 479 kts | 113° |
| 2026-05-04 07:57 | 8.69287 | 55.13718 | 38139 ft | 479 kts | 114° |
| 2026-05-04 07:58 | 8.66534 | 55.19849 | 38135 ft | 479 kts | 115° |
| 2026-05-04 07:58 | 8.63718 | 55.25952 | 38120 ft | 479 kts | 115° |
| 2026-05-04 07:59 | 8.60833 | 55.32025 | 38116 ft | 480 kts | 116° |
| 2026-05-04 07:59 | 8.57866 | 55.38062 | 38124 ft | 480 kts | 117° |
| 2026-05-04 08:00 | 8.54806 | 55.44051 | 38128 ft | 479 kts | 117° |
| 2026-05-04 08:02 | 8.41682 | 55.67531 | 38093 ft | 481 kts | 121° |
| 2026-05-04 08:02 | 8.38162 | 55.73277 | 38073 ft | 481 kts | 122° |
| 2026-05-04 08:03 | 8.34547 | 55.78963 | 38091 ft | 481 kts | 123° |
| 2026-05-04 08:03 | 8.30844 | 55.84584 | 38112 ft | 481 kts | 124° |
| 2026-05-04 08:04 | 8.27045 | 55.90153 | 38080 ft | 482 kts | 125° |
| 2026-05-04 08:04 | 8.23157 | 55.95658 | 38108 ft | 481 kts | 126° |
| 2026-05-04 08:05 | 8.19181 | 56.01096 | 38128 ft | 481 kts | 127° |
| 2026-05-04 08:05 | 8.15118 | 56.06473 | 38087 ft | 482 kts | 127° |
| 2026-05-04 08:06 | 8.10972 | 56.11798 | 38057 ft | 483 kts | 128° |
| 2026-05-04 08:06 | 8.06747 | 56.17069 | 38082 ft | 482 kts | 129° |
| 2026-05-04 08:08 | 7.89184 | 56.37556 | 38117 ft | 483 kts | 132° |
| 2026-05-04 08:11 | 7.69133 | 56.58808 | 38126 ft | 483 kts | 135° |
| 2026-05-04 08:11 | 7.61990 | 56.65917 | 38099 ft | 484 kts | 135° |
| 2026-05-04 08:12 | 7.57139 | 56.70618 | 38108 ft | 484 kts | 136° |
| 2026-05-04 08:12 | 7.52245 | 56.75260 | 38121 ft | 483 kts | 137° |
| 2026-05-04 08:13 | 7.47298 | 56.79851 | 38114 ft | 484 kts | 137° |
| 2026-05-04 08:13 | 7.42299 | 56.84390 | 38105 ft | 484 kts | 138° |
| 2026-05-04 08:14 | 7.37244 | 56.88881 | 38067 ft | 485 kts | 139° |
| 2026-05-04 08:16 | 7.16571 | 57.06314 | 38075 ft | 485 kts | 141° |
| 2026-05-04 08:16 | 7.11298 | 57.10551 | 38073 ft | 485 kts | 141° |
| 2026-05-04 08:17 | 7.05990 | 57.14738 | 38072 ft | 485 kts | 142° |
| 2026-05-04 08:17 | 7.00640 | 57.18878 | 38065 ft | 485 kts | 142° |
| 2026-05-04 08:19 | 6.78885 | 57.34908 | 38069 ft | 485 kts | 144° |
| 2026-05-04 08:20 | 6.73360 | 57.38796 | 38080 ft | 485 kts | 145° |
| 2026-05-04 08:20 | 6.67799 | 57.42636 | 38067 ft | 485 kts | 145° |
| 2026-05-04 08:21 | 6.62197 | 57.46432 | 38050 ft | 486 kts | 146° |
| 2026-05-04 08:21 | 6.56562 | 57.50181 | 38068 ft | 485 kts | 146° |
| 2026-05-04 08:22 | 6.50906 | 57.53873 | 38084 ft | 485 kts | 147° |
| 2026-05-04 08:24 | 6.27957 | 57.68102 | 38118 ft | 484 kts | 149° |
| 2026-05-04 08:24 | 6.22134 | 57.71542 | 38016 ft | 486 kts | 149° |
| 2026-05-04 08:25 | 6.16276 | 57.74945 | 38047 ft | 485 kts | 149° |
| 2026-05-04 08:25 | 6.10415 | 57.78293 | 38125 ft | 484 kts | 150° |